Observation data for White River Lake on 03/01/2021      Previous  Date  Next       Current Mesonet Observations  Soil Data  Daily Summary Page  Observations in Plain Language
KWVS 010600Z 02018KT 07/M09 A3013 RMK A01 T00681092  RH  031%=      5-min Rain = 0
KWVS 010601Z 02017G26KT 07/M09 A3013 RMK A01 T00681092  RH  031%=      5-min Rain = 0
KWVS 010602Z 02018G23KT 07/M09 A3013 RMK A01 T00681091  RH  031%=      5-min Rain = 0
KWVS 010603Z 02017G23KT 07/M09 A3014 RMK A01 T00681091  RH  031%=      5-min Rain = 0
KWVS 010604Z 03017G22KT 07/M09 A3014 RMK A01 T00681091  RH  031%=      5-min Rain = 0
KWVS 010605Z 03016KT 07/M09 A3014 RMK A01 T00671091  RH  031%=      5-min Rain = 0
KWVS 010606Z 03016G23KT 07/M09 A3014 RMK A01 T00681091  RH  031%=      5-min Rain = 0
KWVS 010607Z 03018KT 07/M09 A3015 RMK A01 T00681091  RH  031%=      5-min Rain = 0
KWVS 010608Z 02020G25KT 07/M09 A3015 RMK A01 T00681091  RH  031%=      5-min Rain = 0
KWVS 010609Z 03016G21KT 07/M09 A3015 RMK A01 T00681092  RH  031%=      5-min Rain = 0
KWVS 010610Z 03020G25KT 07/M09 A3015 RMK A01 T00681091  RH  031%=      5-min Rain = 0
KWVS 010611Z 03018G24KT 07/M09 A3015 RMK A01 T00681092  RH  031%=      5-min Rain = 0
KWVS 010612Z 03018G27KT 07/M09 A3015 RMK A01 T00681092  RH  031%=      5-min Rain = 0
KWVS 010613Z 03022G28KT 07/M09 A3015 RMK A01 T00671092  RH  031%=      5-min Rain = 0
KWVS 010614Z 03019G27KT 07/M09 A3015 RMK A01 T00681093  RH  031%=      5-min Rain = 0
KWVS 010615Z 03016G21KT 07/M09 A3015 RMK A01 T00681093  RH  031%=      5-min Rain = 0
KWVS 010616Z 03017KT 07/M09 A3015 RMK A01 T00681092  RH  031%=      5-min Rain = 0
KWVS 010617Z 03018KT 07/M09 A3015 RMK A01 T00681091  RH  031%=      5-min Rain = 0
KWVS 010618Z 03021KT 07/M09 A3015 RMK A01 T00671092  RH  031%=      5-min Rain = 0
KWVS 010619Z 04020KT 07/M09 A3015 RMK A01 T00671092  RH  031%=      5-min Rain = 0
KWVS 010620Z 03022G29KT 07/M09 A3014 RMK A01 T00671092  RH  031%=      5-min Rain = 0
KWVS 010621Z 03021G27KT 07/M09 A3014 RMK A01 T00671092  RH  031%=      5-min Rain = 0
KWVS 010622Z 03022G29KT 07/M09 A3014 RMK A01 T00671093  RH  031%=      5-min Rain = 0
KWVS 010623Z 03017G23KT 07/M09 A3015 RMK A01 T00671093  RH  031%=      5-min Rain = 0
KWVS 010624Z 03021G27KT 07/M09 A3015 RMK A01 T00671092  RH  031%=      5-min Rain = 0
KWVS 010625Z 03021G27KT 07/M09 A3015 RMK A01 T00671093  RH  031%=      5-min Rain = 0
KWVS 010626Z 04020G26KT 07/M09 A3015 RMK A01 T00671093  RH  031%=      5-min Rain = 0
KWVS 010627Z 03019G25KT 07/M09 A3015 RMK A01 T00671093  RH  031%=      5-min Rain = 0
KWVS 010628Z 03017G22KT 07/M09 A3015 RMK A01 T00671093  RH  031%=      5-min Rain = 0
KWVS 010629Z 03018G25KT 07/M09 A3015 RMK A01 T00661093  RH  031%=      5-min Rain = 0
KWVS 010630Z 03019KT 07/M09 A3015 RMK A01 T00661093  RH  031%=      5-min Rain = 0
KWVS 010631Z 04018G23KT 07/M09 A3015 RMK A01 T00661093  RH  031%=      5-min Rain = 0
KWVS 010632Z 04016G22KT 07/M09 A3015 RMK A01 T00651093  RH  031%=      5-min Rain = 0
KWVS 010633Z 03020G26KT 07/M09 A3015 RMK A01 T00651093  RH  031%=      5-min Rain = 0
KWVS 010634Z 03017G22KT 07/M09 A3015 RMK A01 T00651093  RH  031%=      5-min Rain = 0
KWVS 010635Z 04016G22KT 07/M09 A3015 RMK A01 T00651093  RH  031%=      5-min Rain = 0
KWVS 010636Z 03019KT 06/M09 A3015 RMK A01 T00641093  RH  031%=      5-min Rain = 0
KWVS 010637Z 03020G25KT 06/M09 A3015 RMK A01 T00641094  RH  031%=      5-min Rain = 0
KWVS 010638Z 03016G21KT 06/M09 A3015 RMK A01 T00641093  RH  031%=      5-min Rain = 0
KWVS 010639Z 03014G19KT 06/M09 A3015 RMK A01 T00641093  RH  032%=      5-min Rain = 0
KWVS 010640Z 04017G27KT 06/M09 A3015 RMK A01 T00641093  RH  032%=      5-min Rain = 0
KWVS 010641Z 03020KT 06/M09 A3015 RMK A01 T00631093  RH  032%=      5-min Rain = 0
KWVS 010642Z 04018G23KT 06/M09 A3014 RMK A01 T00641094  RH  031%=      5-min Rain = 0
KWVS 010643Z 03017G23KT 06/M09 A3014 RMK A01 T00641094  RH  031%=      5-min Rain = 0
KWVS 010644Z 04017G22KT 06/M09 A3014 RMK A01 T00641093  RH  031%=      5-min Rain = 0
KWVS 010645Z 04018KT 06/M09 A3014 RMK A01 T00631093  RH  032%=      5-min Rain = 0
KWVS 010646Z 03016G22KT 06/M09 A3014 RMK A01 T00631094  RH  032%=      5-min Rain = 0
KWVS 010647Z 03014G22KT 06/M09 A3015 RMK A01 T00631093  RH  032%=      5-min Rain = 0
KWVS 010648Z 03017G22KT 06/M09 A3015 RMK A01 T00631093  RH  032%=      5-min Rain = 0
KWVS 010649Z 03022G28KT 06/M09 A3014 RMK A01 T00631093  RH  032%=      5-min Rain = 0
KWVS 010650Z 03021KT 06/M09 A3014 RMK A01 T00631094  RH  031%=      5-min Rain = 0
KWVS 010651Z 04021KT 06/M09 A3014 RMK A01 T00631094  RH  031%=      5-min Rain = 0
KWVS 010652Z 03017KT 06/M09 A3015 RMK A01 T00631094  RH  031%=      5-min Rain = 0
KWVS 010653Z 03016KT 06/M09 A3015 RMK A01 T00631093  RH  032%=      5-min Rain = 0
KWVS 010654Z 03019G24KT 06/M09 A3015 RMK A01 T00631093  RH  032%=      5-min Rain = 0
KWVS 010655Z 03016G22KT 06/M09 A3015 RMK A01 T00631093  RH  032%=      5-min Rain = 0
KWVS 010656Z 02017G23KT 06/M09 A3015 RMK A01 T00631092  RH  032%=      5-min Rain = 0
KWVS 010657Z 02017KT 06/M09 A3015 RMK A01 T00631093  RH  032%=      5-min Rain = 0
KWVS 010658Z 02015G20KT 06/M09 A3015 RMK A01 T00621092  RH  032%=      5-min Rain = 0
KWVS 010659Z 02018G23KT 06/M09 A3015 RMK A01 T00621092  RH  032%=      5-min Rain = 0
KWVS 010700Z 02019KT 06/M09 A3014 RMK A01 T00621092  RH  032%=      5-min Rain = 0
KWVS 010701Z 02017G22KT 06/M09 A3014 RMK A01 T00621092  RH  032%=      5-min Rain = 0
KWVS 010702Z 02016G24KT 06/M09 A3013 RMK A01 T00611092  RH  032%=      5-min Rain = 0
KWVS 010703Z 02021G26KT 06/M09 A3013 RMK A01 T00611092  RH  033%=      5-min Rain = 0
KWVS 010704Z 03019KT 06/M09 A3013 RMK A01 T00611092  RH  033%=      5-min Rain = 0
KWVS 010705Z 02016KT 06/M09 A3013 RMK A01 T00611092  RH  033%=      5-min Rain = 0
KWVS 010706Z 02016G23KT 06/M09 A3013 RMK A01 T00601092  RH  033%=      5-min Rain = 0
KWVS 010707Z 02018G23KT 06/M09 A3013 RMK A01 T00591091  RH  033%=      5-min Rain = 0
KWVS 010708Z 03017G23KT 06/M09 A3013 RMK A01 T00591091  RH  033%=      5-min Rain = 0
KWVS 010709Z 03015KT 06/M09 A3013 RMK A01 T00591091  RH  033%=      5-min Rain = 0
KWVS 010710Z 03016G21KT 06/M09 A3013 RMK A01 T00581091  RH  033%=      5-min Rain = 0
KWVS 010711Z 03017KT 06/M09 A3013 RMK A01 T00581091  RH  033%=      5-min Rain = 0
KWVS 010712Z 03014G19KT 06/M09 A3014 RMK A01 T00571091  RH  034%=      5-min Rain = 0
KWVS 010713Z 02015G20KT 06/M09 A3014 RMK A01 T00571091  RH  034%=      5-min Rain = 0
KWVS 010714Z 02015KT 06/M09 A3014 RMK A01 T00571091  RH  034%=      5-min Rain = 0
KWVS 010715Z 02017G23KT 06/M09 A3013 RMK A01 T00571091  RH  034%=      5-min Rain = 0
KWVS 010716Z 02015KT 06/M09 A3013 RMK A01 T00571091  RH  034%=      5-min Rain = 0
KWVS 010717Z 02014KT 06/M09 A3013 RMK A01 T00561091  RH  034%=      5-min Rain = 0
KWVS 010718Z 03013KT 06/M09 A3013 RMK A01 T00551091  RH  034%=      5-min Rain = 0
KWVS 010719Z 03016G23KT 06/M09 A3013 RMK A01 T00551090  RH  034%=      5-min Rain = 0
KWVS 010720Z 02017G22KT 06/M09 A3013 RMK A01 T00551091  RH  034%=      5-min Rain = 0
KWVS 010721Z 02014KT 06/M09 A3013 RMK A01 T00551091  RH  034%=      5-min Rain = 0
KWVS 010722Z 02015G23KT 06/M09 A3013 RMK A01 T00551091  RH  034%=      5-min Rain = 0
KWVS 010723Z 02016G21KT 06/M09 A3013 RMK A01 T00551091  RH  034%=      5-min Rain = 0
KWVS 010724Z 02014G19KT 06/M09 A3013 RMK A01 T00551092  RH  034%=      5-min Rain = 0
KWVS 010725Z 02016G21KT 06/M09 A3013 RMK A01 T00551091  RH  034%=      5-min Rain = 0
KWVS 010726Z 03016KT 06/M09 A3013 RMK A01 T00551091  RH  034%=      5-min Rain = 0
KWVS 010727Z 03015KT 06/M09 A3013 RMK A01 T00551091  RH  034%=      5-min Rain = 0
KWVS 010728Z 03016G21KT 06/M09 A3012 RMK A01 T00551091  RH  034%=      5-min Rain = 0
KWVS 010729Z 02017KT 06/M09 A3012 RMK A01 T00551091  RH  034%=      5-min Rain = 0
KWVS 010730Z 02017KT 06/M09 A3012 RMK A01 T00551091  RH  034%=      5-min Rain = 0
KWVS 010731Z 02018KT 06/M09 A3012 RMK A01 T00551092  RH  034%=      5-min Rain = 0
KWVS 010732Z 02015KT 06/M09 A3012 RMK A01 T00551091  RH  034%=      5-min Rain = 0
KWVS 010733Z 02015G20KT 06/M09 A3012 RMK A01 T00551091  RH  034%=      5-min Rain = 0
KWVS 010734Z 02018G23KT 06/M09 A3011 RMK A01 T00551091  RH  034%=      5-min Rain = 0
KWVS 010735Z 02018G24KT 06/M09 A3011 RMK A01 T00551091  RH  034%=      5-min Rain = 0
KWVS 010736Z 02021G26KT 05/M09 A3011 RMK A01 T00541091  RH  034%=      5-min Rain = 0
KWVS 010737Z 01017KT 05/M09 A3012 RMK A01 T00541091  RH  034%=      5-min Rain = 0
KWVS 010738Z 02017G24KT 05/M09 A3012 RMK A01 T00541091  RH  034%=      5-min Rain = 0
KWVS 010739Z 02018G24KT 05/M09 A3012 RMK A01 T00541090  RH  034%=      5-min Rain = 0
KWVS 010740Z 02019G25KT 05/M09 A3013 RMK A01 T00541090  RH  035%=      5-min Rain = 0
KWVS 010741Z 02018G24KT 05/M09 A3013 RMK A01 T00541090  RH  035%=      5-min Rain = 0
KWVS 010742Z 02016G22KT 05/M09 A3013 RMK A01 T00541090  RH  035%=      5-min Rain = 0
KWVS 010743Z 02016G22KT 05/M09 A3013 RMK A01 T00541090  RH  035%=      5-min Rain = 0
KWVS 010744Z 02018KT 05/M09 A3013 RMK A01 T00541089  RH  035%=      5-min Rain = 0
KWVS 010745Z 02017KT 05/M09 A3013 RMK A01 T00531090  RH  035%=      5-min Rain = 0
KWVS 010746Z 02018KT 05/M09 A3013 RMK A01 T00531089  RH  035%=      5-min Rain = 0
KWVS 010747Z 02015G20KT 05/M09 A3014 RMK A01 T00531089  RH  035%=      5-min Rain = 0
KWVS 010748Z 02018G25KT 05/M09 A3013 RMK A01 T00531089  RH  035%=      5-min Rain = 0
KWVS 010749Z 02019KT 05/M09 A3013 RMK A01 T00541089  RH  035%=      5-min Rain = 0
KWVS 010750Z 02016KT 05/M09 A3013 RMK A01 T00531089  RH  035%=      5-min Rain = 0
KWVS 010751Z 02015G20KT 05/M09 A3013 RMK A01 T00531089  RH  035%=      5-min Rain = 0
KWVS 010752Z 02018G24KT 05/M09 A3013 RMK A01 T00531089  RH  035%=      5-min Rain = 0
KWVS 010753Z 02016G22KT 05/M09 A3013 RMK A01 T00531089  RH  035%=      5-min Rain = 0
KWVS 010754Z 02016G21KT 05/M09 A3013 RMK A01 T00531089  RH  035%=      5-min Rain = 0
KWVS 010755Z 02019G24KT 05/M09 A3013 RMK A01 T00531089  RH  035%=      5-min Rain = 0
KWVS 010756Z 02018KT 05/M09 A3013 RMK A01 T00531089  RH  035%=      5-min Rain = 0
KWVS 010757Z 01020G25KT 05/M09 A3013 RMK A01 T00531089  RH  035%=      5-min Rain = 0
KWVS 010758Z 01019G24KT 05/M09 A3013 RMK A01 T00531090  RH  035%=      5-min Rain = 0
KWVS 010759Z 01018G24KT 05/M09 A3013 RMK A01 T00531090  RH  035%=      5-min Rain = 0
KWVS 010800Z 01021G26KT 05/M09 A3012 RMK A01 T00531089  RH  035%=      5-min Rain = 0
KWVS 010801Z 01019G26KT 05/M09 A3012 RMK A01 T00531089  RH  035%=      5-min Rain = 0
KWVS 010802Z 01019G27KT 05/M09 A3012 RMK A01 T00531089  RH  035%=      5-min Rain = 0
KWVS 010803Z 01020KT 05/M09 A3012 RMK A01 T00531089  RH  035%=      5-min Rain = 0
KWVS 010804Z 01021G28KT 05/M09 A3012 RMK A01 T00521090  RH  035%=      5-min Rain = 0
KWVS 010805Z 01021G27KT 05/M09 A3012 RMK A01 T00521090  RH  035%=      5-min Rain = 0
KWVS 010806Z 01022G27KT 05/M09 A3012 RMK A01 T00521090  RH  035%=      5-min Rain = 0
KWVS 010807Z 01021G26KT 05/M09 A3012 RMK A01 T00521090  RH  035%=      5-min Rain = 0
KWVS 010808Z 01019KT 05/M09 A3012 RMK A01 T00521091  RH  035%=      5-min Rain = 0
KWVS 010809Z 01019KT 05/M09 A3013 RMK A01 T00511091  RH  035%=      5-min Rain = 0
KWVS 010810Z 01017G22KT 05/M09 A3013 RMK A01 T00511090  RH  035%=      5-min Rain = 0
KWVS 010811Z 01015KT 05/M09 A3014 RMK A01 T00511090  RH  035%=      5-min Rain = 0
KWVS 010812Z 01018G25KT 05/M09 A3014 RMK A01 T00511090  RH  035%=      5-min Rain = 0
KWVS 010813Z 01018G24KT 05/M09 A3014 RMK A01 T00511090  RH  035%=      5-min Rain = 0
KWVS 010814Z 02018KT 05/M09 A3014 RMK A01 T00511090  RH  035%=      5-min Rain = 0
KWVS 010815Z 02017G23KT 05/M09 A3014 RMK A01 T00511090  RH  035%=      5-min Rain = 0
KWVS 010816Z 02017G22KT 05/M09 A3014 RMK A01 T00511090  RH  035%=      5-min Rain = 0
KWVS 010817Z 02015KT 05/M09 A3014 RMK A01 T00511089  RH  036%=      5-min Rain = 0
KWVS 010818Z 02016G22KT 05/M09 A3014 RMK A01 T00501089  RH  036%=      5-min Rain = 0
KWVS 010819Z 02015KT 05/M09 A3014 RMK A01 T00501089  RH  036%=      5-min Rain = 0
KWVS 010820Z 02014G19KT 05/M09 A3014 RMK A01 T00501088  RH  036%=      5-min Rain = 0
KWVS 010821Z 02017KT 05/M09 A3014 RMK A01 T00491089  RH  036%=      5-min Rain = 0
KWVS 010822Z 02013G22KT 05/M09 A3014 RMK A01 T00491088  RH  036%=      5-min Rain = 0
KWVS 010823Z 02018KT 05/M09 A3014 RMK A01 T00491088  RH  036%=      5-min Rain = 0
KWVS 010824Z 02014KT 05/M09 A3014 RMK A01 T00491088  RH  037%=      5-min Rain = 0
KWVS 010825Z 02020G26KT 05/M09 A3014 RMK A01 T00481087  RH  037%=      5-min Rain = 0
KWVS 010826Z 02016G21KT 05/M09 A3014 RMK A01 T00481088  RH  037%=      5-min Rain = 0
KWVS 010827Z 02013KT 05/M09 A3014 RMK A01 T00481087  RH  037%=      5-min Rain = 0
KWVS 010828Z 03014KT 05/M09 A3014 RMK A01 T00481087  RH  037%=      5-min Rain = 0
KWVS 010829Z 02013G19KT 05/M09 A3014 RMK A01 T00481087  RH  037%=      5-min Rain = 0
KWVS 010830Z 03016KT 05/M09 A3014 RMK A01 T00471087  RH  037%=      5-min Rain = 0
KWVS 010831Z 02014G19KT 05/M09 A3015 RMK A01 T00471086  RH  037%=      5-min Rain = 0
KWVS 010832Z 02012KT 05/M09 A3015 RMK A01 T00471086  RH  037%=      5-min Rain = 0
KWVS 010833Z 02013G19KT 05/M09 A3015 RMK A01 T00471086  RH  038%=      5-min Rain = 0
KWVS 010834Z 02015KT 05/M09 A3015 RMK A01 T00471085  RH  038%=      5-min Rain = 0
KWVS 010835Z 02015KT 05/M09 A3015 RMK A01 T00471085  RH  038%=      5-min Rain = 0
KWVS 010836Z 01014KT 05/M09 A3014 RMK A01 T00471085  RH  038%=      5-min Rain = 0
KWVS 010837Z 02017G22KT 05/M09 A3014 RMK A01 T00471085  RH  038%=      5-min Rain = 0
KWVS 010838Z 02016G21KT 05/M09 A3015 RMK A01 T00471085  RH  038%=      5-min Rain = 0
KWVS 010839Z 02017KT 05/M09 A3015 RMK A01 T00461085  RH  038%=      5-min Rain = 0
KWVS 010840Z 02017KT 05/M09 A3015 RMK A01 T00461085  RH  038%=      5-min Rain = 0
KWVS 010841Z 02016G22KT 05/M08 A3015 RMK A01 T00461084  RH  038%=      5-min Rain = 0
KWVS 010842Z 02014G19KT 05/M08 A3015 RMK A01 T00461084  RH  038%=      5-min Rain = 0
KWVS 010843Z 02016G21KT 05/M08 A3015 RMK A01 T00461084  RH  038%=      5-min Rain = 0
KWVS 010844Z 02016KT 05/M08 A3015 RMK A01 T00461084  RH  038%=      5-min Rain = 0
KWVS 010845Z 02014G22KT 05/M08 A3015 RMK A01 T00461084  RH  038%=      5-min Rain = 0
KWVS 010846Z 03015G20KT 05/M08 A3015 RMK A01 T00451084  RH  039%=      5-min Rain = 0
KWVS 010847Z 02016KT 05/M08 A3015 RMK A01 T00451084  RH  039%=      5-min Rain = 0
KWVS 010848Z 02014KT 05/M08 A3015 RMK A01 T00451084  RH  039%=      5-min Rain = 0
KWVS 010849Z 03015G20KT 05/M08 A3015 RMK A01 T00451084  RH  039%=      5-min Rain = 0
KWVS 010850Z 03014G19KT 04/M08 A3015 RMK A01 T00441084  RH  039%=      5-min Rain = 0
KWVS 010851Z 03015KT 04/M08 A3015 RMK A01 T00441084  RH  039%=      5-min Rain = 0
KWVS 010852Z 03018G23KT 04/M08 A3016 RMK A01 T00441084  RH  039%=      5-min Rain = 0
KWVS 010853Z 03015G21KT 04/M09 A3016 RMK A01 T00441085  RH  039%=      5-min Rain = 0
KWVS 010854Z 02013KT 04/M08 A3017 RMK A01 T00441084  RH  039%=      5-min Rain = 0
KWVS 010855Z 02012KT 04/M08 A3017 RMK A01 T00441084  RH  039%=      5-min Rain = 0
KWVS 010856Z 02011KT 04/M08 A3017 RMK A01 T00441084  RH  039%=      5-min Rain = 0
KWVS 010857Z 02014KT 04/M08 A3017 RMK A01 T00441084  RH  039%=      5-min Rain = 0
KWVS 010858Z 02012KT 04/M08 A3017 RMK A01 T00441084  RH  039%=      5-min Rain = 0
KWVS 010859Z 02011KT 04/M08 A3017 RMK A01 T00441084  RH  039%=      5-min Rain = 0
KWVS 010900Z 03010KT 04/M08 A3017 RMK A01 T00441084  RH  039%=      5-min Rain = 0
KWVS 010901Z 02012KT 04/M08 A3017 RMK A01 T00441084  RH  039%=      5-min Rain = 0
KWVS 010902Z 03013G18KT 04/M08 A3017 RMK A01 T00441084  RH  039%=      5-min Rain = 0
KWVS 010903Z 03013KT 04/M08 A3016 RMK A01 T00441084  RH  039%=      5-min Rain = 0
KWVS 010904Z 02013KT 05/M09 A3016 RMK A01 T00451085  RH  039%=      5-min Rain = 0
KWVS 010905Z 02017KT 05/M08 A3016 RMK A01 T00451084  RH  039%=      5-min Rain = 0
KWVS 010906Z 03014KT 05/M08 A3017 RMK A01 T00451084  RH  039%=      5-min Rain = 0
KWVS 010907Z 02011KT 05/M08 A3017 RMK A01 T00451084  RH  039%=      5-min Rain = 0
KWVS 010908Z 02014KT 04/M08 A3017 RMK A01 T00441084  RH  039%=      5-min Rain = 0
KWVS 010909Z 02015G20KT 04/M08 A3016 RMK A01 T00441084  RH  039%=      5-min Rain = 0
KWVS 010910Z 02015KT 04/M09 A3016 RMK A01 T00441085  RH  039%=      5-min Rain = 0
KWVS 010911Z 02014KT 04/M09 A3017 RMK A01 T00441085  RH  039%=      5-min Rain = 0
KWVS 010912Z 02015KT 04/M08 A3017 RMK A01 T00441084  RH  039%=      5-min Rain = 0
KWVS 010913Z 02014KT 04/M09 A3017 RMK A01 T00441085  RH  039%=      5-min Rain = 0
KWVS 010914Z 02015KT 04/M09 A3017 RMK A01 T00441085  RH  039%=      5-min Rain = 0
KWVS 010915Z 02014G19KT 04/M08 A3017 RMK A01 T00441084  RH  039%=      5-min Rain = 0
KWVS 010916Z 01012KT 04/M08 A3017 RMK A01 T00441084  RH  039%=      5-min Rain = 0
KWVS 010917Z 02012KT 04/M08 A3017 RMK A01 T00441084  RH  039%=      5-min Rain = 0
KWVS 010918Z 02014KT 04/M08 A3017 RMK A01 T00441083  RH  039%=      5-min Rain = 0
KWVS 010919Z 02014KT 04/M08 A3017 RMK A01 T00441083  RH  039%=      5-min Rain = 0
KWVS 010920Z 02014KT 04/M08 A3017 RMK A01 T00441083  RH  039%=      5-min Rain = 0
KWVS 010921Z 02014KT 04/M08 A3017 RMK A01 T00441083  RH  039%=      5-min Rain = 0
KWVS 010922Z 02014KT 04/M08 A3017 RMK A01 T00441083  RH  039%=      5-min Rain = 0
KWVS 010923Z 03014G20KT 04/M08 A3017 RMK A01 T00431083  RH  039%=      5-min Rain = 0
KWVS 010924Z 02017KT 04/M08 A3017 RMK A01 T00431084  RH  039%=      5-min Rain = 0
KWVS 010925Z 02017KT 04/M08 A3017 RMK A01 T00431084  RH  039%=      5-min Rain = 0
KWVS 010926Z 02017KT 04/M08 A3017 RMK A01 T00431084  RH  039%=      5-min Rain = 0
KWVS 010927Z 02017KT 04/M08 A3017 RMK A01 T00431084  RH  039%=      5-min Rain = 0
KWVS 010928Z 03016G21KT 04/M08 A3017 RMK A01 T00431084  RH  039%=      5-min Rain = 0
KWVS 010929Z 03015KT 04/M08 A3017 RMK A01 T00431083  RH  039%=      5-min Rain = 0
KWVS 010930Z 03017KT 04/M08 A3017 RMK A01 T00431083  RH  039%=      5-min Rain = 0
KWVS 010931Z 02014G19KT 04/M08 A3017 RMK A01 T00431083  RH  039%=      5-min Rain = 0
KWVS 010932Z 02013G20KT 04/M08 A3017 RMK A01 T00431083  RH  039%=      5-min Rain = 0
KWVS 010933Z 02015G21KT 04/M08 A3017 RMK A01 T00431083  RH  039%=      5-min Rain = 0
KWVS 010934Z 02014KT 04/M08 A3017 RMK A01 T00431084  RH  039%=      5-min Rain = 0
KWVS 010935Z 02014KT 04/M08 A3017 RMK A01 T00431083  RH  039%=      5-min Rain = 0
KWVS 010936Z 01014KT 04/M08 A3017 RMK A01 T00431083  RH  039%=      5-min Rain = 0
KWVS 010937Z 01016KT 04/M08 A3017 RMK A01 T00431083  RH  039%=      5-min Rain = 0
KWVS 010938Z 01016KT 04/M08 A3017 RMK A01 T00431083  RH  039%=      5-min Rain = 0
KWVS 010939Z 01014G19KT 04/M08 A3017 RMK A01 T00431083  RH  039%=      5-min Rain = 0
KWVS 010940Z 01013KT 04/M08 A3017 RMK A01 T00431083  RH  039%=      5-min Rain = 0
KWVS 010941Z 01015G20KT 04/M08 A3017 RMK A01 T00431083  RH  040%=      5-min Rain = 0
KWVS 010942Z 01014KT 04/M08 A3017 RMK A01 T00431083  RH  039%=      5-min Rain = 0
KWVS 010943Z 01014KT 04/M08 A3017 RMK A01 T00421084  RH  039%=      5-min Rain = 0
KWVS 010944Z 01015KT 04/M08 A3017 RMK A01 T00431084  RH  039%=      5-min Rain = 0
KWVS 010945Z 01014KT 04/M08 A3017 RMK A01 T00431084  RH  039%=      5-min Rain = 0
KWVS 010946Z 01017G22KT 04/M08 A3017 RMK A01 T00431084  RH  039%=      5-min Rain = 0
KWVS 010947Z 02016G23KT 04/M08 A3016 RMK A01 T00431084  RH  039%=      5-min Rain = 0
KWVS 010948Z 02017G23KT 04/M08 A3016 RMK A01 T00431084  RH  039%=      5-min Rain = 0
KWVS 010949Z 01017G22KT 04/M08 A3016 RMK A01 T00421084  RH  039%=      5-min Rain = 0
KWVS 010950Z 02019G24KT 04/M08 A3016 RMK A01 T00431083  RH  039%=      5-min Rain = 0
KWVS 010951Z 01017G23KT 04/M08 A3016 RMK A01 T00431084  RH  039%=      5-min Rain = 0
KWVS 010952Z 01018G23KT 04/M08 A3016 RMK A01 T00421084  RH  039%=      5-min Rain = 0
KWVS 010953Z 01017G22KT 04/M08 A3016 RMK A01 T00421084  RH  039%=      5-min Rain = 0
KWVS 010954Z 02017KT 04/M08 A3016 RMK A01 T00421084  RH  039%=      5-min Rain = 0
KWVS 010955Z 02015KT 04/M08 A3016 RMK A01 T00421084  RH  039%=      5-min Rain = 0
KWVS 010956Z 01016G23KT 04/M08 A3016 RMK A01 T00421084  RH  039%=      5-min Rain = 0
KWVS 010957Z 01015KT 04/M08 A3016 RMK A01 T00421084  RH  039%=      5-min Rain = 0
KWVS 010958Z 02017G22KT 04/M09 A3017 RMK A01 T00431085  RH  039%=      5-min Rain = 0
KWVS 010959Z 01016G22KT 04/M09 A3017 RMK A01 T00431085  RH  039%=      5-min Rain = 0
KWVS 011000Z 02015KT 04/M09 A3017 RMK A01 T00431085  RH  039%=      5-min Rain = 0
KWVS 011001Z 01016KT 04/M08 A3017 RMK A01 T00431084  RH  039%=      5-min Rain = 0
KWVS 011002Z 01015KT 04/M08 A3017 RMK A01 T00431084  RH  039%=      5-min Rain = 0
KWVS 011003Z 02018G25KT 04/M08 A3017 RMK A01 T00431084  RH  039%=      5-min Rain = 0
KWVS 011004Z 02017G22KT 04/M08 A3017 RMK A01 T00431084  RH  039%=      5-min Rain = 0
KWVS 011005Z 02016G22KT 04/M08 A3017 RMK A01 T00431084  RH  039%=      5-min Rain = 0
KWVS 011006Z 02018KT 04/M08 A3017 RMK A01 T00431084  RH  039%=      5-min Rain = 0
KWVS 011007Z 02013KT 04/M08 A3018 RMK A01 T00431084  RH  039%=      5-min Rain = 0
KWVS 011008Z 02015G20KT 04/M08 A3018 RMK A01 T00431084  RH  039%=      5-min Rain = 0
KWVS 011009Z 02013KT 04/M08 A3018 RMK A01 T00431084  RH  039%=      5-min Rain = 0
KWVS 011010Z 02012KT 04/M08 A3018 RMK A01 T00431084  RH  039%=      5-min Rain = 0
KWVS 011011Z 02013G19KT 04/M08 A3018 RMK A01 T00431083  RH  039%=      5-min Rain = 0
KWVS 011012Z 02018KT 04/M08 A3018 RMK A01 T00431084  RH  039%=      5-min Rain = 0
KWVS 011013Z 02015KT 04/M09 A3019 RMK A01 T00431085  RH  039%=      5-min Rain = 0
KWVS 011014Z 02012G18KT 04/M08 A3019 RMK A01 T00431084  RH  039%=      5-min Rain = 0
KWVS 011015Z 03011KT 04/M08 A3019 RMK A01 T00431083  RH  039%=      5-min Rain = 0
KWVS 011016Z 03012KT 04/M08 A302 RMK A01 T00431083  RH  039%=      5-min Rain = 0
KWVS 011017Z 03014G20KT 04/M08 A302 RMK A01 T00431083  RH  039%=      5-min Rain = 0
KWVS 011018Z 03012KT 04/M08 A302 RMK A01 T00431084  RH  039%=      5-min Rain = 0
KWVS 011019Z 03012KT 04/M08 A302 RMK A01 T00431084  RH  039%=      5-min Rain = 0
KWVS 011020Z 04011G18KT 04/M08 A302 RMK A01 T00431083  RH  039%=      5-min Rain = 0
KWVS 011021Z 03013KT 04/M08 A302 RMK A01 T00431082  RH  039%=      5-min Rain = 0
KWVS 011022Z 03011KT 04/M08 A302 RMK A01 T00431083  RH  039%=      5-min Rain = 0
KWVS 011023Z 04010KT 04/M08 A302 RMK A01 T00431082  RH  040%=      5-min Rain = 0
KWVS 011024Z 04013KT 04/M08 A3019 RMK A01 T00431082  RH  040%=      5-min Rain = 0
KWVS 011025Z 03013KT 04/M08 A3019 RMK A01 T00431083  RH  040%=      5-min Rain = 0
KWVS 011026Z 03013KT 04/M08 A3019 RMK A01 T00421083  RH  040%=      5-min Rain = 0
KWVS 011027Z 04012KT 04/M08 A3019 RMK A01 T00421083  RH  040%=      5-min Rain = 0
KWVS 011028Z 03014KT 04/M08 A3019 RMK A01 T00421082  RH  040%=      5-min Rain = 0
KWVS 011029Z 04013KT 04/M08 A3018 RMK A01 T00421083  RH  040%=      5-min Rain = 0
KWVS 011030Z 04013KT 04/M08 A3018 RMK A01 T00421083  RH  040%=      5-min Rain = 0
KWVS 011031Z 03013KT 04/M08 A3018 RMK A01 T00421083  RH  040%=      5-min Rain = 0
KWVS 011032Z 04011KT 04/M08 A3018 RMK A01 T00421082  RH  040%=      5-min Rain = 0
KWVS 011033Z 04011KT 04/M08 A3018 RMK A01 T00411082  RH  040%=      5-min Rain = 0
KWVS 011034Z 04011KT 04/M08 A3018 RMK A01 T00411082  RH  040%=      5-min Rain = 0
KWVS 011035Z 04012KT 04/M08 A3018 RMK A01 T00411082  RH  040%=      5-min Rain = 0
KWVS 011036Z 03012KT 04/M08 A3018 RMK A01 T00411082  RH  040%=      5-min Rain = 0
KWVS 011037Z 03012KT 04/M08 A3018 RMK A01 T00411083  RH  040%=      5-min Rain = 0
KWVS 011038Z 03013KT 04/M08 A3019 RMK A01 T00411083  RH  040%=      5-min Rain = 0
KWVS 011039Z 03013KT 04/M08 A3019 RMK A01 T00411084  RH  040%=      5-min Rain = 0
KWVS 011040Z 03011KT 04/M08 A3019 RMK A01 T00411084  RH  040%=      5-min Rain = 0
KWVS 011041Z 03013KT 04/M08 A3019 RMK A01 T00411083  RH  040%=      5-min Rain = 0
KWVS 011042Z 03012KT 04/M08 A3019 RMK A01 T00411084  RH  040%=      5-min Rain = 0
KWVS 011043Z 03015KT 04/M08 A3019 RMK A01 T00411084  RH  040%=      5-min Rain = 0
KWVS 011044Z 03016KT 04/M08 A3019 RMK A01 T00411084  RH  040%=      5-min Rain = 0
KWVS 011045Z 03014G19KT 04/M08 A3019 RMK A01 T00411084  RH  040%=      5-min Rain = 0
KWVS 011046Z 03014KT 04/M08 A3019 RMK A01 T00411083  RH  040%=      5-min Rain = 0
KWVS 011047Z 03015KT 04/M08 A3019 RMK A01 T00411083  RH  040%=      5-min Rain = 0
KWVS 011048Z 03013KT 04/M08 A3019 RMK A01 T00411083  RH  040%=      5-min Rain = 0
KWVS 011049Z 03013G18KT 04/M08 A3019 RMK A01 T00401082  RH  040%=      5-min Rain = 0
KWVS 011050Z 03017G22KT 04/M08 A3019 RMK A01 T00401082  RH  040%=      5-min Rain = 0
KWVS 011051Z 02014G20KT 04/M08 A3019 RMK A01 T00401083  RH  040%=      5-min Rain = 0
KWVS 011052Z 02015G20KT 04/M08 A3019 RMK A01 T00401082  RH  040%=      5-min Rain = 0
KWVS 011053Z 02015KT 04/M08 A3019 RMK A01 T00401082  RH  040%=      5-min Rain = 0
KWVS 011054Z 02015KT 04/M08 A3019 RMK A01 T00401083  RH  040%=      5-min Rain = 0
KWVS 011055Z 02014KT 04/M08 A3019 RMK A01 T00401083  RH  040%=      5-min Rain = 0
KWVS 011056Z 02013G18KT 04/M08 A3019 RMK A01 T00401082  RH  040%=      5-min Rain = 0
KWVS 011057Z 02016KT 04/M08 A302 RMK A01 T00401082  RH  041%=      5-min Rain = 0
KWVS 011058Z 02015KT 04/M08 A302 RMK A01 T00401083  RH  040%=      5-min Rain = 0
KWVS 011059Z 02015G20KT 04/M08 A302 RMK A01 T00401083  RH  040%=      5-min Rain = 0
KWVS 011100Z 02013KT 04/M08 A302 RMK A01 T00401082  RH  040%=      5-min Rain = 0
KWVS 011101Z 03016G21KT 04/M08 A302 RMK A01 T00401082  RH  041%=      5-min Rain = 0
KWVS 011102Z 03015KT 04/M08 A302 RMK A01 T00401083  RH  040%=      5-min Rain = 0
KWVS 011103Z 03012KT 04/M08 A302 RMK A01 T00401082  RH  040%=      5-min Rain = 0
KWVS 011104Z 03013G18KT 04/M08 A3019 RMK A01 T00401082  RH  041%=      5-min Rain = 0
KWVS 011105Z 03015KT 04/M08 A3019 RMK A01 T00401082  RH  041%=      5-min Rain = 0
KWVS 011106Z 02011G18KT 04/M08 A3019 RMK A01 T00401082  RH  041%=      5-min Rain = 0
KWVS 011107Z 03014KT 04/M08 A3019 RMK A01 T00401081  RH  041%=      5-min Rain = 0
KWVS 011108Z 02015G21KT 04/M08 A3019 RMK A01 T00401081  RH  041%=      5-min Rain = 0
KWVS 011109Z 03013KT 04/M08 A3019 RMK A01 T00401081  RH  041%=      5-min Rain = 0
KWVS 011110Z 02014KT 04/M08 A3019 RMK A01 T00401081  RH  041%=      5-min Rain = 0
KWVS 011111Z 03014KT 04/M08 A3019 RMK A01 T00391082  RH  041%=      5-min Rain = 0
KWVS 011112Z 03013KT 04/M08 A3019 RMK A01 T00391081  RH  041%=      5-min Rain = 0
KWVS 011113Z 03014G19KT 04/M08 A302 RMK A01 T00391081  RH  041%=      5-min Rain = 0
KWVS 011114Z 03015G20KT 04/M08 A3019 RMK A01 T00391081  RH  041%=      5-min Rain = 0
KWVS 011115Z 02016G21KT 04/M08 A3019 RMK A01 T00391081  RH  041%=      5-min Rain = 0
KWVS 011116Z 02016KT 04/M08 A3019 RMK A01 T00391081  RH  041%=      5-min Rain = 0
KWVS 011117Z 02014KT 04/M08 A3019 RMK A01 T00391081  RH  041%=      5-min Rain = 0
KWVS 011118Z 03015G22KT 04/M08 A3019 RMK A01 T00391081  RH  041%=      5-min Rain = 0
KWVS 011119Z 02014G19KT 04/M08 A3019 RMK A01 T00391081  RH  041%=      5-min Rain = 0
KWVS 011120Z 02015G20KT 04/M08 A3019 RMK A01 T00391081  RH  041%=      5-min Rain = 0
KWVS 011121Z 03016KT 04/M08 A3019 RMK A01 T00391081  RH  041%=      5-min Rain = 0
KWVS 011122Z 03015G20KT 04/M08 A3019 RMK A01 T00391081  RH  041%=      5-min Rain = 0
KWVS 011123Z 02015KT 04/M08 A302 RMK A01 T00391081  RH  041%=      5-min Rain = 0
KWVS 011124Z 02014KT 04/M08 A302 RMK A01 T00381081  RH  042%=      5-min Rain = 0
KWVS 011125Z 02014KT 04/M08 A302 RMK A01 T00381081  RH  041%=      5-min Rain = 0
KWVS 011126Z 02016KT 04/M08 A302 RMK A01 T00381081  RH  041%=      5-min Rain = 0
KWVS 011127Z 02015KT 04/M08 A302 RMK A01 T00381081  RH  041%=      5-min Rain = 0
KWVS 011128Z 02016G21KT 04/M08 A302 RMK A01 T00381081  RH  041%=      5-min Rain = 0
KWVS 011129Z 02016G23KT 04/M08 A302 RMK A01 T00381081  RH  041%=      5-min Rain = 0
KWVS 011130Z 03013KT 04/M08 A3021 RMK A01 T00381081  RH  041%=      5-min Rain = 0
KWVS 011131Z 03011KT 04/M08 A3021 RMK A01 T00381081  RH  041%=      5-min Rain = 0
KWVS 011132Z 03014KT 04/M08 A3021 RMK A01 T00381081  RH  041%=      5-min Rain = 0
KWVS 011133Z 04011KT 04/M08 A3021 RMK A01 T00381081  RH  041%=      5-min Rain = 0
KWVS 011134Z 04013G18KT 04/M08 A3022 RMK A01 T00381080  RH  042%=      5-min Rain = 0
KWVS 011135Z 03015KT 04/M08 A3022 RMK A01 T00381081  RH  041%=      5-min Rain = 0
KWVS 011136Z 03012KT 04/M08 A3022 RMK A01 T00381081  RH  041%=      5-min Rain = 0
KWVS 011137Z 04012KT 04/M08 A3022 RMK A01 T00381081  RH  041%=      5-min Rain = 0
KWVS 011138Z 04011KT 04/M08 A3022 RMK A01 T00381081  RH  041%=      5-min Rain = 0
KWVS 011139Z 04011KT 04/M08 A3022 RMK A01 T00381081  RH  041%=      5-min Rain = 0
KWVS 011140Z 04010KT 04/M08 A3023 RMK A01 T00381081  RH  041%=      5-min Rain = 0
KWVS 011141Z 04009G14KT 04/M08 A3023 RMK A01 T00381081  RH  042%=      5-min Rain = 0
KWVS 011142Z 04011KT 04/M08 A3023 RMK A01 T00381081  RH  042%=      5-min Rain = 0
KWVS 011143Z 05009KT 04/M08 A3023 RMK A01 T00381081  RH  042%=      5-min Rain = 0
KWVS 011144Z 05008KT 04/M08 A3023 RMK A01 T00381080  RH  042%=      5-min Rain = 0
KWVS 011145Z 06006KT 04/M08 A3023 RMK A01 T00381080  RH  042%=      5-min Rain = 0
KWVS 011146Z 05005KT 04/M08 A3024 RMK A01 T00381079  RH  042%=      5-min Rain = 0
KWVS 011147Z 05007KT 04/M08 A3024 RMK A01 T00381079  RH  042%=      5-min Rain = 0
KWVS 011148Z 05006KT 04/M08 A3024 RMK A01 T00381079  RH  042%=      5-min Rain = 0
KWVS 011149Z 05008KT 04/M08 A3024 RMK A01 T00381080  RH  042%=      5-min Rain = 0
KWVS 011150Z 05008KT 04/M08 A3024 RMK A01 T00381080  RH  042%=      5-min Rain = 0
KWVS 011151Z 06008KT 04/M08 A3025 RMK A01 T00381080  RH  042%=      5-min Rain = 0
KWVS 011152Z 06007KT 04/M08 A3025 RMK A01 T00381080  RH  042%=      5-min Rain = 0
KWVS 011153Z 06006KT 04/M08 A3025 RMK A01 T00381080  RH  042%=      5-min Rain = 0
KWVS 011154Z 05007KT 04/M08 A3025 RMK A01 T00381080  RH  042%=      5-min Rain = 0
KWVS 011155Z 04005KT 04/M08 A3025 RMK A01 T00381080  RH  042%=      5-min Rain = 0
KWVS 011156Z 05005KT 04/M08 A3025 RMK A01 T00381080  RH  042%=      5-min Rain = 0
KWVS 011157Z 04005KT 04/M08 A3025 RMK A01 T00381080  RH  042%=      5-min Rain = 0
KWVS 011158Z 06008KT 04/M08 A3025 RMK A01 T00381079  RH  042%=      5-min Rain = 0
KWVS 011159Z 05008KT 04/M08 A3025 RMK A01 T00381080  RH  042%=      5-min Rain = 0
KWVS 011200Z 04009KT 04/M08 A3025 RMK A01 T00381080  RH  042%=      5-min Rain = 0
KWVS 011201Z 04009G14KT 04/M08 A3025 RMK A01 T00381080  RH  042%=      5-min Rain = 0
KWVS 011202Z 04012G18KT 04/M08 A3025 RMK A01 T00381081  RH  041%=      5-min Rain = 0
KWVS 011203Z 04013KT 04/M08 A3025 RMK A01 T00381082  RH  041%=      5-min Rain = 0
KWVS 011204Z 04011KT 04/M08 A3025 RMK A01 T00381081  RH  041%=      5-min Rain = 0
KWVS 011205Z 03011KT 04/M08 A3024 RMK A01 T00381081  RH  041%=      5-min Rain = 0
KWVS 011206Z 04014KT 04/M08 A3024 RMK A01 T00381081  RH  042%=      5-min Rain = 0
KWVS 011207Z 04012KT 04/M08 A3024 RMK A01 T00381081  RH  041%=      5-min Rain = 0
KWVS 011208Z 04010KT 04/M08 A3024 RMK A01 T00381081  RH  041%=      5-min Rain = 0
KWVS 011209Z 03012KT 04/M08 A3024 RMK A01 T00381080  RH  042%=      5-min Rain = 0
KWVS 011210Z 04012KT 04/M08 A3024 RMK A01 T00381080  RH  042%=      5-min Rain = 0
KWVS 011211Z 04011KT 04/M08 A3024 RMK A01 T00381080  RH  042%=      5-min Rain = 0
KWVS 011212Z 04012KT 04/M08 A3023 RMK A01 T00381080  RH  042%=      5-min Rain = 0
KWVS 011213Z 04012KT 04/M08 A3023 RMK A01 T00381081  RH  042%=      5-min Rain = 0
KWVS 011214Z 04013KT 04/M08 A3023 RMK A01 T00381081  RH  042%=      5-min Rain = 0
KWVS 011215Z 03013KT 04/M08 A3023 RMK A01 T00381080  RH  042%=      5-min Rain = 0
KWVS 011216Z 03016KT 04/M08 A3023 RMK A01 T00381080  RH  042%=      5-min Rain = 0
KWVS 011217Z 03013KT 04/M08 A3023 RMK A01 T00381080  RH  042%=      5-min Rain = 0
KWVS 011218Z 04015KT 04/M08 A3022 RMK A01 T00381080  RH  042%=      5-min Rain = 0
KWVS 011219Z 04014KT 04/M08 A3022 RMK A01 T00371081  RH  042%=      5-min Rain = 0
KWVS 011220Z 03011KT 04/M08 A3022 RMK A01 T00371080  RH  042%=      5-min Rain = 0
KWVS 011221Z 03011KT 04/M08 A3022 RMK A01 T00371080  RH  042%=      5-min Rain = 0
KWVS 011222Z 03013KT 04/M08 A3022 RMK A01 T00371080  RH  042%=      5-min Rain = 0
KWVS 011223Z 03014KT 04/M08 A3022 RMK A01 T00371079  RH  042%=      5-min Rain = 0
KWVS 011224Z 03014G19KT 04/M08 A3022 RMK A01 T00371080  RH  042%=      5-min Rain = 0
KWVS 011225Z 03011KT 04/M08 A3022 RMK A01 T00371080  RH  042%=      5-min Rain = 0
KWVS 011226Z 03014G19KT 04/M08 A3022 RMK A01 T00361079  RH  043%=      5-min Rain = 0
KWVS 011227Z 03014KT 04/M08 A3022 RMK A01 T00361080  RH  043%=      5-min Rain = 0
KWVS 011228Z 03014KT 04/M08 A3022 RMK A01 T00361080  RH  043%=      5-min Rain = 0
KWVS 011229Z 03015KT 04/M08 A3022 RMK A01 T00351079  RH  043%=      5-min Rain = 0
KWVS 011230Z 03017KT 04/M08 A3021 RMK A01 T00351079  RH  043%=      5-min Rain = 0
KWVS 011231Z 03016KT 03/M08 A3021 RMK A01 T00341079  RH  043%=      5-min Rain = 0
KWVS 011232Z 02016KT 03/M08 A3021 RMK A01 T00341079  RH  043%=      5-min Rain = 0
KWVS 011233Z 02017KT 03/M08 A3021 RMK A01 T00341079  RH  043%=      5-min Rain = 0
KWVS 011234Z 02017KT 03/M08 A3021 RMK A01 T00331079  RH  044%=      5-min Rain = 0
KWVS 011235Z 02016KT 03/M08 A3021 RMK A01 T00331079  RH  044%=      5-min Rain = 0
KWVS 011236Z 03017KT 03/M08 A3021 RMK A01 T00331079  RH  044%=      5-min Rain = 0
KWVS 011237Z 02016KT 03/M08 A3022 RMK A01 T00331078  RH  044%=      5-min Rain = 0
KWVS 011238Z 03014G19KT 03/M08 A3022 RMK A01 T00321078  RH  044%=      5-min Rain = 0
KWVS 011239Z 02014G20KT 03/M08 A3022 RMK A01 T00321078  RH  044%=      5-min Rain = 0
KWVS 011240Z 03016G21KT 03/M08 A3022 RMK A01 T00321078  RH  044%=      5-min Rain = 0
KWVS 011241Z 03012KT 03/M08 A3022 RMK A01 T00321078  RH  044%=      5-min Rain = 0
KWVS 011242Z 03011KT 03/M08 A3023 RMK A01 T00321078  RH  044%=      5-min Rain = 0
KWVS 011243Z 03013KT 03/M08 A3023 RMK A01 T00321077  RH  045%=      5-min Rain = 0
KWVS 011244Z 03015KT 03/M08 A3023 RMK A01 T00321077  RH  045%=      5-min Rain = 0
KWVS 011245Z 03013G18KT 03/M08 A3023 RMK A01 T00321077  RH  045%=      5-min Rain = 0
KWVS 011246Z 03013KT 03/M08 A3023 RMK A01 T00321077  RH  045%=      5-min Rain = 0
KWVS 011247Z 03010KT 03/M08 A3023 RMK A01 T00321077  RH  045%=      5-min Rain = 0
KWVS 011248Z 03012KT 03/M08 A3024 RMK A01 T00321076  RH  045%=      5-min Rain = 0
KWVS 011249Z 03014KT 03/M08 A3024 RMK A01 T00321076  RH  045%=      5-min Rain = 0
KWVS 011250Z 03014KT 03/M08 A3024 RMK A01 T00321076  RH  045%=      5-min Rain = 0
KWVS 011251Z 02015G20KT 03/M08 A3024 RMK A01 T00321076  RH  045%=      5-min Rain = 0
KWVS 011252Z 03018KT 03/M08 A3024 RMK A01 T00321076  RH  045%=      5-min Rain = 0
KWVS 011253Z 03016KT 03/M08 A3025 RMK A01 T00321076  RH  045%=      5-min Rain = 0
KWVS 011254Z 03016KT 03/M08 A3025 RMK A01 T00321075  RH  045%=      5-min Rain = 0
KWVS 011255Z 02014KT 03/M08 A3025 RMK A01 T00321075  RH  045%=      5-min Rain = 0
KWVS 011256Z 02014KT 03/M08 A3025 RMK A01 T00321075  RH  045%=      5-min Rain = 0
KWVS 011257Z 02013KT 03/M08 A3025 RMK A01 T00321075  RH  045%=      5-min Rain = 0
KWVS 011258Z 02012KT 03/M08 A3026 RMK A01 T00321075  RH  046%=      5-min Rain = 0
KWVS 011259Z 02009KT 03/M07 A3026 RMK A01 T00321074  RH  046%=      5-min Rain = 0
KWVS 011300Z 03009KT 03/M07 A3026 RMK A01 T00311074  RH  046%=      5-min Rain = 0
KWVS 011301Z 03011KT 03/M07 A3026 RMK A01 T00311074  RH  046%=      5-min Rain = 0
KWVS 011302Z 03012KT 03/M07 A3026 RMK A01 T00311074  RH  046%=      5-min Rain = 0
KWVS 011303Z 02011KT 03/M08 A3027 RMK A01 T00311075  RH  046%=      5-min Rain = 0
KWVS 011304Z 01011KT 03/M08 A3027 RMK A01 T00311075  RH  046%=      5-min Rain = 0
KWVS 011305Z 02011KT 03/M08 A3027 RMK A01 T00311075  RH  046%=      5-min Rain = 0
KWVS 011306Z 02010KT 03/M08 A3028 RMK A01 T00311075  RH  046%=      5-min Rain = 0
KWVS 011307Z 01010KT 03/M08 A3028 RMK A01 T00311075  RH  046%=      5-min Rain = 0
KWVS 011308Z 02011KT 03/M08 A3028 RMK A01 T00311075  RH  046%=      5-min Rain = 0
KWVS 011309Z 01010KT 03/M08 A3028 RMK A01 T00311075  RH  046%=      5-min Rain = 0
KWVS 011310Z 01010KT 03/M08 A3029 RMK A01 T00311075  RH  046%=      5-min Rain = 0
KWVS 011311Z 01009KT 03/M08 A3029 RMK A01 T00311075  RH  046%=      5-min Rain = 0
KWVS 011312Z 02009KT 03/M08 A3029 RMK A01 T00311075  RH  046%=      5-min Rain = 0
KWVS 011313Z 03008KT 03/M08 A3029 RMK A01 T00311075  RH  046%=      5-min Rain = 0
KWVS 011314Z 03009KT 03/M07 A3029 RMK A01 T00311074  RH  046%=      5-min Rain = 0
KWVS 011315Z 03010KT 03/M07 A3029 RMK A01 T00311074  RH  046%=      5-min Rain = 0
KWVS 011316Z 02008KT 03/M07 A3029 RMK A01 T00311074  RH  046%=      5-min Rain = 0
KWVS 011317Z 02008KT 03/M07 A3029 RMK A01 T00311074  RH  046%=      5-min Rain = 0
KWVS 011318Z 02007KT 03/M07 A3029 RMK A01 T00311073  RH  046%=      5-min Rain = 0
KWVS 011319Z 03011KT 03/M07 A3029 RMK A01 T00311073  RH  046%=      5-min Rain = 0
KWVS 011320Z 03010KT 03/M07 A3029 RMK A01 T00311073  RH  046%=      5-min Rain = 0
KWVS 011321Z 02011KT 03/M07 A3029 RMK A01 T00311073  RH  047%=      5-min Rain = 0
KWVS 011322Z 02012KT 03/M07 A3029 RMK A01 T00311073  RH  046%=      5-min Rain = 0
KWVS 011323Z 02011KT 03/M07 A3029 RMK A01 T00301074  RH  046%=      5-min Rain = 0
KWVS 011324Z 02011KT 03/M07 A3029 RMK A01 T00301074  RH  046%=      5-min Rain = 0
KWVS 011325Z 03011KT 03/M07 A3029 RMK A01 T00301074  RH  046%=      5-min Rain = 0
KWVS 011326Z 03011KT 03/M07 A3029 RMK A01 T00301074  RH  046%=      5-min Rain = 0
KWVS 011327Z 03011KT 03/M07 A3029 RMK A01 T00301074  RH  046%=      5-min Rain = 0
KWVS 011328Z 03010KT 03/M07 A3029 RMK A01 T00301074  RH  046%=      5-min Rain = 0
KWVS 011329Z 03010KT 03/M07 A303 RMK A01 T00301074  RH  046%=      5-min Rain = 0
KWVS 011330Z 03012KT 03/M07 A303 RMK A01 T00301073  RH  047%=      5-min Rain = 0
KWVS 011331Z 03010KT 03/M07 A303 RMK A01 T00301073  RH  047%=      5-min Rain = 0
KWVS 011332Z 03010KT 03/M07 A303 RMK A01 T00301073  RH  047%=      5-min Rain = 0
KWVS 011333Z 03012KT 03/M07 A303 RMK A01 T00301073  RH  047%=      5-min Rain = 0
KWVS 011334Z 03011KT 03/M07 A303 RMK A01 T00301073  RH  047%=      5-min Rain = 0
KWVS 011335Z 03011KT 03/M07 A3029 RMK A01 T00301073  RH  047%=      5-min Rain = 0
KWVS 011336Z 03012KT 03/M07 A3029 RMK A01 T00301073  RH  047%=      5-min Rain = 0
KWVS 011337Z 03013KT 03/M07 A3029 RMK A01 T00301073  RH  047%=      5-min Rain = 0
KWVS 011338Z 03011KT 03/M07 A3029 RMK A01 T00301073  RH  047%=      5-min Rain = 0
KWVS 011339Z 03012KT 03/M07 A3029 RMK A01 T00301072  RH  047%=      5-min Rain = 0
KWVS 011340Z 02011KT 03/M07 A3029 RMK A01 T00301073  RH  047%=      5-min Rain = 0
KWVS 011341Z 03009KT 03/M07 A3029 RMK A01 T00301073  RH  047%=      5-min Rain = 0
KWVS 011342Z 02010KT 03/M07 A3029 RMK A01 T00301072  RH  047%=      5-min Rain = 0
KWVS 011343Z 02012KT 03/M07 A3029 RMK A01 T00301071  RH  047%=      5-min Rain = 0
KWVS 011344Z 03012KT 03/M07 A3029 RMK A01 T00301072  RH  047%=      5-min Rain = 0
KWVS 011345Z 03011KT 03/M07 A3029 RMK A01 T00291072  RH  047%=      5-min Rain = 0
KWVS 011346Z 03011KT 03/M07 A3029 RMK A01 T00291071  RH  048%=      5-min Rain = 0
KWVS 011347Z 03012KT 03/M07 A3029 RMK A01 T00291071  RH  048%=      5-min Rain = 0
KWVS 011348Z 03011KT 03/M07 A3029 RMK A01 T00291071  RH  048%=      5-min Rain = 0
KWVS 011349Z 03010KT 03/M07 A303 RMK A01 T00291071  RH  048%=      5-min Rain = 0
KWVS 011350Z 02008KT 03/M07 A303 RMK A01 T00291070  RH  048%=      5-min Rain = 0
KWVS 011351Z 02009KT 03/M07 A303 RMK A01 T00291070  RH  048%=      5-min Rain = 0
KWVS 011352Z 02010KT 03/M07 A303 RMK A01 T00301070  RH  048%=      5-min Rain = 0
KWVS 011353Z 02009KT 03/M07 A303 RMK A01 T00301070  RH  048%=      5-min Rain = 0
KWVS 011354Z 02009KT 03/M07 A303 RMK A01 T00301070  RH  048%=      5-min Rain = 0
KWVS 011355Z 02010KT 03/M07 A303 RMK A01 T00301070  RH  048%=      5-min Rain = 0
KWVS 011356Z 01012KT 03/M07 A303 RMK A01 T00301070  RH  048%=      5-min Rain = 0
KWVS 011357Z 02013KT 03/M07 A3029 RMK A01 T00301070  RH  048%=      5-min Rain = 0
KWVS 011358Z 02012KT 03/M07 A3029 RMK A01 T00291070  RH  048%=      5-min Rain = 0
KWVS 011359Z 02012KT 03/M07 A303 RMK A01 T00291070  RH  048%=      5-min Rain = 0
KWVS 011400Z 02010KT 03/M07 A303 RMK A01 T00291070  RH  048%=      5-min Rain = 0
KWVS 011401Z 02012KT 03/M07 A303 RMK A01 T00291069  RH  048%=      5-min Rain = 0
KWVS 011402Z 02013KT 03/M07 A303 RMK A01 T00291070  RH  048%=      5-min Rain = 0
KWVS 011403Z 02013KT 03/M07 A303 RMK A01 T00291070  RH  048%=      5-min Rain = 0
KWVS 011404Z 02012KT 03/M07 A303 RMK A01 T00291070  RH  048%=      5-min Rain = 0
KWVS 011405Z 02011KT 03/M07 A303 RMK A01 T00291069  RH  048%=      5-min Rain = 0
KWVS 011406Z 02014KT 03/M07 A303 RMK A01 T00291069  RH  049%=      5-min Rain = 0
KWVS 011407Z 02016KT 03/M07 A303 RMK A01 T00291070  RH  048%=      5-min Rain = 0
KWVS 011408Z 02012KT 03/M07 A303 RMK A01 T00291070  RH  048%=      5-min Rain = 0
KWVS 011409Z 02012KT 03/M07 A303 RMK A01 T00291069  RH  049%=      5-min Rain = 0
KWVS 011410Z 02013KT 03/M07 A303 RMK A01 T00291069  RH  049%=      5-min Rain = 0
KWVS 011411Z 01012KT 03/M07 A303 RMK A01 T00291069  RH  048%=      5-min Rain = 0
KWVS 011412Z 01012KT 03/M07 A3031 RMK A01 T00291069  RH  049%=      5-min Rain = 0
KWVS 011413Z 01011KT 03/M07 A3031 RMK A01 T00291069  RH  049%=      5-min Rain = 0
KWVS 011414Z 02012KT 03/M07 A3031 RMK A01 T00301068  RH  049%=      5-min Rain = 0
KWVS 011415Z 02011KT 03/M07 A3031 RMK A01 T00301069  RH  048%=      5-min Rain = 0
KWVS 011416Z 01013KT 03/M07 A3031 RMK A01 T00301068  RH  049%=      5-min Rain = 0
KWVS 011417Z 01012KT 03/M07 A3031 RMK A01 T00301069  RH  048%=      5-min Rain = 0
KWVS 011418Z 01014KT 03/M07 A3031 RMK A01 T00301068  RH  048%=      5-min Rain = 0
KWVS 011419Z 01015KT 03/M07 A3031 RMK A01 T00301069  RH  048%=      5-min Rain = 0
KWVS 011420Z 01012KT 03/M07 A3031 RMK A01 T00301069  RH  048%=      5-min Rain = 0
KWVS 011421Z 01011KT 03/M07 A3031 RMK A01 T00301068  RH  049%=      5-min Rain = 0
KWVS 011422Z 03010KT 03/M07 A3031 RMK A01 T00311067  RH  049%=      5-min Rain = 0
KWVS 011423Z 03011KT 03/M07 A3031 RMK A01 T00311067  RH  048%=      5-min Rain = 0
KWVS 011424Z 03013KT 03/M07 A3031 RMK A01 T00311068  RH  048%=      5-min Rain = 0
KWVS 011425Z 02010KT 03/M07 A3031 RMK A01 T00311067  RH  048%=      5-min Rain = 0
KWVS 011426Z 02012KT 03/M07 A3031 RMK A01 T00311067  RH  049%=      5-min Rain = 0
KWVS 011427Z 02011KT 03/M07 A3031 RMK A01 T00311067  RH  049%=      5-min Rain = 0
KWVS 011428Z 02013KT 03/M07 A303 RMK A01 T00311066  RH  049%=      5-min Rain = 0
KWVS 011429Z 03014KT 03/M07 A303 RMK A01 T00321067  RH  048%=      5-min Rain = 0
KWVS 011430Z 02014KT 03/M07 A303 RMK A01 T00321067  RH  048%=      5-min Rain = 0
KWVS 011431Z 02015KT 03/M07 A303 RMK A01 T00321067  RH  048%=      5-min Rain = 0
KWVS 011432Z 03013KT 03/M07 A303 RMK A01 T00311067  RH  048%=      5-min Rain = 0
KWVS 011433Z 03014G19KT 03/M07 A303 RMK A01 T00311066  RH  049%=      5-min Rain = 0
KWVS 011434Z 03016G21KT 03/M07 A303 RMK A01 T00321067  RH  048%=      5-min Rain = 0
KWVS 011435Z 03017KT 03/M07 A303 RMK A01 T00321068  RH  048%=      5-min Rain = 0
KWVS 011436Z 03016KT 03/M07 A303 RMK A01 T00311068  RH  048%=      5-min Rain = 0
KWVS 011437Z 03015KT 03/M07 A303 RMK A01 T00311068  RH  048%=      5-min Rain = 0
KWVS 011438Z 03016KT 03/M07 A303 RMK A01 T00311067  RH  048%=      5-min Rain = 0
KWVS 011439Z 03015KT 03/M07 A303 RMK A01 T00311067  RH  048%=      5-min Rain = 0
KWVS 011440Z 03015KT 03/M07 A303 RMK A01 T00321067  RH  048%=      5-min Rain = 0
KWVS 011441Z 04015G21KT 03/M07 A303 RMK A01 T00321066  RH  048%=      5-min Rain = 0
KWVS 011442Z 03016KT 03/M07 A303 RMK A01 T00321066  RH  048%=      5-min Rain = 0
KWVS 011443Z 03015KT 03/M07 A303 RMK A01 T00321066  RH  048%=      5-min Rain = 0
KWVS 011444Z 03012G17KT 03/M07 A303 RMK A01 T00321066  RH  048%=      5-min Rain = 0
KWVS 011445Z 04011KT 03/M07 A303 RMK A01 T00331065  RH  049%=      5-min Rain = 0
KWVS 011446Z 03014KT 03/M06 A303 RMK A01 T00341064  RH  049%=      5-min Rain = 0
KWVS 011447Z 03015KT 03/M07 A303 RMK A01 T00341065  RH  048%=      5-min Rain = 0
KWVS 011448Z 04014KT 03/M06 A303 RMK A01 T00331064  RH  049%=      5-min Rain = 0
KWVS 011449Z 04012KT 03/M07 A303 RMK A01 T00331065  RH  049%=      5-min Rain = 0
KWVS 011450Z 03012G17KT 03/M06 A303 RMK A01 T00331064  RH  049%=      5-min Rain = 0
KWVS 011451Z 03013G18KT 03/M06 A303 RMK A01 T00331063  RH  049%=      5-min Rain = 0
KWVS 011452Z 03015KT 03/M06 A303 RMK A01 T00331063  RH  049%=      5-min Rain = 0
KWVS 011453Z 03013KT 03/M06 A303 RMK A01 T00331063  RH  049%=      5-min Rain = 0
KWVS 011454Z 03015KT 03/M06 A3031 RMK A01 T00331063  RH  049%=      5-min Rain = 0
KWVS 011455Z 03014KT 03/M06 A3031 RMK A01 T00331063  RH  049%=      5-min Rain = 0
KWVS 011456Z 03016KT 03/M06 A3031 RMK A01 T00331063  RH  050%=      5-min Rain = 0
KWVS 011457Z 03015KT 03/M06 A3031 RMK A01 T00321063  RH  049%=      5-min Rain = 0
KWVS 011458Z 03014KT 03/M06 A3031 RMK A01 T00321063  RH  050%=      5-min Rain = 0
KWVS 011459Z 03014KT 03/M06 A3031 RMK A01 T00321063  RH  050%=      5-min Rain = 0
KWVS 011500Z 02016KT 03/M06 A3031 RMK A01 T00321063  RH  050%=      5-min Rain = 0
KWVS 011501Z 03014KT 03/M06 A3031 RMK A01 T00321063  RH  050%=      5-min Rain = 0
KWVS 011502Z 03013KT 03/M06 A3032 RMK A01 T00311063  RH  050%=      5-min Rain = 0
KWVS 011503Z 02012KT 03/M06 A3032 RMK A01 T00311063  RH  050%=      5-min Rain = 0
KWVS 011504Z 02014KT 03/M06 A3032 RMK A01 T00321063  RH  050%=      5-min Rain = 0
KWVS 011505Z 03012KT 03/M06 A3032 RMK A01 T00321063  RH  050%=      5-min Rain = 0
KWVS 011506Z 04011KT 03/M06 A3032 RMK A01 T00321062  RH  050%=      5-min Rain = 0
KWVS 011507Z 03010KT 03/M06 A3032 RMK A01 T00321061  RH  051%=      5-min Rain = 0
KWVS 011508Z 03007KT 03/M06 A3033 RMK A01 T00321061  RH  050%=      5-min Rain = 0
KWVS 011509Z 02010KT 03/M06 A3033 RMK A01 T00321060  RH  051%=      5-min Rain = 0
KWVS 011510Z 02008KT 03/M06 A3033 RMK A01 T00331060  RH  051%=      5-min Rain = 0
KWVS 011511Z 02010G15KT 03/M06 A3033 RMK A01 T00331059  RH  051%=      5-min Rain = 0
KWVS 011512Z 03010KT 03/M06 A3033 RMK A01 T00331060  RH  051%=      5-min Rain = 0
KWVS 011513Z 03011KT 03/M06 A3033 RMK A01 T00321060  RH  051%=      5-min Rain = 0
KWVS 011514Z 02010KT 03/M06 A3033 RMK A01 T00321060  RH  051%=      5-min Rain = 0
KWVS 011515Z 02011KT 03/M06 A3034 RMK A01 T00321060  RH  051%=      5-min Rain = 0
KWVS 011516Z 02010G15KT 03/M06 A3034 RMK A01 T00321060  RH  051%=      5-min Rain = 0
KWVS 011517Z 02012KT 03/M06 A3034 RMK A01 T00321060  RH  051%=      5-min Rain = 0
KWVS 011518Z 02012KT 03/M06 A3033 RMK A01 T00321060  RH  051%=      5-min Rain = 0
KWVS 011519Z 03011KT 03/M06 A3033 RMK A01 T00321059  RH  051%=      5-min Rain = 0
KWVS 011520Z 03013KT 03/M06 A3033 RMK A01 T00321060  RH  051%=      5-min Rain = 0
KWVS 011521Z 03010KT 03/M06 A3034 RMK A01 T00321060  RH  051%=      5-min Rain = 0
KWVS 011522Z 03012KT 03/M06 A3034 RMK A01 T00321060  RH  051%=      5-min Rain = 0
KWVS 011523Z 03011KT 03/M06 A3034 RMK A01 T00321061  RH  051%=      5-min Rain = 0
KWVS 011524Z 02009KT 03/M06 A3034 RMK A01 T00321060  RH  051%=      5-min Rain = 0
KWVS 011525Z 02011KT 03/M06 A3034 RMK A01 T00321060  RH  051%=      5-min Rain = 0
KWVS 011526Z 02010KT 03/M06 A3034 RMK A01 T00321060  RH  051%=      5-min Rain = 0
KWVS 011527Z 02010KT 03/M06 A3034 RMK A01 T00321059  RH  051%=      5-min Rain = 0
KWVS 011528Z 02010KT 03/M06 A3034 RMK A01 T00321059  RH  051%=      5-min Rain = 0
KWVS 011529Z 02010KT 03/M06 A3034 RMK A01 T00321059  RH  052%=      5-min Rain = 0
KWVS 011530Z 03009KT 03/M06 A3034 RMK A01 T00321058  RH  052%=      5-min Rain = 0
KWVS 011531Z 03010KT 03/M06 A3034 RMK A01 T00321058  RH  052%=      5-min Rain = 0
KWVS 011532Z 03012KT 03/M06 A3034 RMK A01 T00321059  RH  051%=      5-min Rain = 0
KWVS 011533Z 03012KT 03/M06 A3034 RMK A01 T00321060  RH  051%=      5-min Rain = 0
KWVS 011534Z 02011KT 03/M06 A3034 RMK A01 T00311060  RH  051%=      5-min Rain = 0
KWVS 011535Z 02013KT 03/M06 A3034 RMK A01 T00311059  RH  052%=      5-min Rain = 0
KWVS 011536Z 03013KT 03/M06 A3034 RMK A01 T00311061  RH  051%=      5-min Rain = 0
KWVS 011537Z 03012KT 03/M06 A3034 RMK A01 T00311061  RH  051%=      5-min Rain = 0
KWVS 011538Z 03012KT 03/M06 A3034 RMK A01 T00311061  RH  051%=      5-min Rain = 0
KWVS 011539Z 03010KT 03/M06 A3034 RMK A01 T00311061  RH  051%=      5-min Rain = 0
KWVS 011540Z 03010KT 03/M06 A3034 RMK A01 T00311060  RH  051%=      5-min Rain = 0
KWVS 011541Z 03009KT 03/M06 A3034 RMK A01 T00321059  RH  051%=      5-min Rain = 0
KWVS 011542Z 02009KT 03/M06 A3035 RMK A01 T00321058  RH  052%=      5-min Rain = 0
KWVS 011543Z 02011KT 03/M06 A3035 RMK A01 T00331059  RH  051%=      5-min Rain = 0
KWVS 011544Z 02011KT 03/M06 A3035 RMK A01 T00321060  RH  051%=      5-min Rain = 0
KWVS 011545Z 02010KT 03/M06 A3035 RMK A01 T00321060  RH  051%=      5-min Rain = 0
KWVS 011546Z 03009KT 03/M06 A3035 RMK A01 T00321059  RH  051%=      5-min Rain = 0
KWVS 011547Z 02008KT 03/M06 A3035 RMK A01 T00321059  RH  051%=      5-min Rain = 0
KWVS 011548Z 02010KT 03/M06 A3035 RMK A01 T00321059  RH  051%=      5-min Rain = 0
KWVS 011549Z 02009KT 03/M06 A3035 RMK A01 T00321059  RH  051%=      5-min Rain = 0
KWVS 011550Z 03010KT 03/M06 A3036 RMK A01 T00321059  RH  051%=      5-min Rain = 0
KWVS 011551Z 03009KT 03/M06 A3036 RMK A01 T00321059  RH  051%=      5-min Rain = 0
KWVS 011552Z 03009KT 03/M06 A3036 RMK A01 T00321059  RH  051%=      5-min Rain = 0
KWVS 011553Z 03008KT 03/M06 A3036 RMK A01 T00331059  RH  051%=      5-min Rain = 0
KWVS 011554Z 03008KT 03/M06 A3036 RMK A01 T00331059  RH  051%=      5-min Rain = 0
KWVS 011555Z 02008KT 03/M06 A3036 RMK A01 T00331058  RH  051%=      5-min Rain = 0
KWVS 011556Z 02008KT 03/M06 A3036 RMK A01 T00341059  RH  051%=      5-min Rain = 0
KWVS 011557Z 03008KT 03/M06 A3036 RMK A01 T00341060  RH  050%=      5-min Rain = 0
KWVS 011558Z 03007KT 03/M06 A3036 RMK A01 T00341060  RH  050%=      5-min Rain = 0
KWVS 011559Z 03008KT 03/M06 A3036 RMK A01 T00331060  RH  050%=      5-min Rain = 0
KWVS 011600Z 03008KT 03/M06 A3036 RMK A01 T00331060  RH  050%=      5-min Rain = 0
KWVS 011601Z 02008KT 03/M06 A3036 RMK A01 T00331060  RH  050%=      5-min Rain = 0
KWVS 011602Z 03008KT 03/M06 A3036 RMK A01 T00331060  RH  051%=      5-min Rain = 0
KWVS 011603Z 04008KT 03/M06 A3036 RMK A01 T00331059  RH  051%=      5-min Rain = 0
KWVS 011604Z 04008KT 03/M06 A3036 RMK A01 T00331059  RH  051%=      5-min Rain = 0
KWVS 011605Z 03007KT 03/M06 A3036 RMK A01 T00331059  RH  051%=      5-min Rain = 0
KWVS 011606Z 02009KT 03/M06 A3036 RMK A01 T00331059  RH  051%=      5-min Rain = 0
KWVS 011607Z 02008KT 03/M06 A3036 RMK A01 T00331059  RH  051%=      5-min Rain = 0
KWVS 011608Z 03008KT 03/M06 A3036 RMK A01 T00331059  RH  051%=      5-min Rain = 0
KWVS 011609Z 04007KT 03/M06 A3036 RMK A01 T00341059  RH  051%=      5-min Rain = 0
KWVS 011610Z 04008KT 03/M06 A3036 RMK A01 T00341058  RH  051%=      5-min Rain = 0
KWVS 011611Z 03006KT 03/M06 A3036 RMK A01 T00341059  RH  051%=      5-min Rain = 0
KWVS 011612Z 03009KT 03/M06 A3036 RMK A01 T00341059  RH  051%=      5-min Rain = 0
KWVS 011613Z 03009KT 03/M06 A3036 RMK A01 T00341060  RH  050%=      5-min Rain = 0
KWVS 011614Z 03009KT 03/M06 A3036 RMK A01 T00341060  RH  050%=      5-min Rain = 0
KWVS 011615Z 03009KT 03/M06 A3036 RMK A01 T00341060  RH  050%=      5-min Rain = 0
KWVS 011616Z 03009KT 03/M06 A3036 RMK A01 T00341060  RH  050%=      5-min Rain = 0
KWVS 011617Z 02008KT 03/M06 A3036 RMK A01 T00341060  RH  050%=      5-min Rain = 0
KWVS 011618Z 02007KT 03/M06 A3036 RMK A01 T00341060  RH  050%=      5-min Rain = 0
KWVS 011619Z 01010KT 04/M06 A3036 RMK A01 T00351058  RH  051%=      5-min Rain = 0
KWVS 011620Z 01008KT 04/M06 A3036 RMK A01 T00351059  RH  050%=      5-min Rain = 0
KWVS 011621Z 02008KT 04/M06 A3036 RMK A01 T00351058  RH  050%=      5-min Rain = 0
KWVS 011622Z 02009KT 04/M06 A3036 RMK A01 T00361057  RH  050%=      5-min Rain = 0
KWVS 011623Z 03010KT 04/M06 A3036 RMK A01 T00361058  RH  050%=      5-min Rain = 0
KWVS 011624Z 02009KT 04/M06 A3036 RMK A01 T00361059  RH  050%=      5-min Rain = 0
KWVS 011625Z 02010KT 04/M06 A3036 RMK A01 T00361058  RH  050%=      5-min Rain = 0
KWVS 011626Z 02010KT 04/M06 A3036 RMK A01 T00361059  RH  050%=      5-min Rain = 0
KWVS 011627Z 01008KT 04/M06 A3036 RMK A01 T00361058  RH  050%=      5-min Rain = 0
KWVS 011628Z 02009KT 04/M06 A3036 RMK A01 T00371058  RH  050%=      5-min Rain = 0
KWVS 011629Z 02010KT 04/M06 A3036 RMK A01 T00371058  RH  050%=      5-min Rain = 0
KWVS 011630Z 02009KT 04/M06 A3036 RMK A01 T00371059  RH  050%=      5-min Rain = 0
KWVS 011631Z 01008KT 04/M06 A3036 RMK A01 T00371059  RH  050%=      5-min Rain = 0
KWVS 011632Z 01010KT 04/M06 A3036 RMK A01 T00371060  RH  049%=      5-min Rain = 0
KWVS 011633Z 01010KT 04/M06 A3036 RMK A01 T00371060  RH  049%=      5-min Rain = 0
KWVS 011634Z 01010KT 04/M06 A3036 RMK A01 T00371060  RH  049%=      5-min Rain = 0
KWVS 011635Z 01011KT 04/M06 A3036 RMK A01 T00381060  RH  049%=      5-min Rain = 0
KWVS 011636Z 02011KT 04/M06 A3036 RMK A01 T00381061  RH  049%=      5-min Rain = 0
KWVS 011637Z 02011KT 04/M06 A3036 RMK A01 T00371060  RH  049%=      5-min Rain = 0
KWVS 011638Z 01013KT 04/M06 A3036 RMK A01 T00381061  RH  048%=      5-min Rain = 0
KWVS 011639Z 02013KT 04/M06 A3035 RMK A01 T00381062  RH  048%=      5-min Rain = 0
KWVS 011640Z 01011KT 04/M06 A3035 RMK A01 T00371062  RH  048%=      5-min Rain = 0
KWVS 011641Z 01012KT 04/M06 A3035 RMK A01 T00371061  RH  049%=      5-min Rain = 0
KWVS 011642Z 01011KT 04/M06 A3035 RMK A01 T00371061  RH  049%=      5-min Rain = 0
KWVS 011643Z 01010KT 04/M06 A3035 RMK A01 T00381060  RH  049%=      5-min Rain = 0
KWVS 011644Z 03009KT 04/M06 A3035 RMK A01 T00381059  RH  049%=      5-min Rain = 0
KWVS 011645Z 04011KT 04/M06 A3035 RMK A01 T00391059  RH  049%=      5-min Rain = 0
KWVS 011646Z 01011KT 04/M06 A3036 RMK A01 T00391060  RH  048%=      5-min Rain = 0
KWVS 011647Z 01011KT 04/M06 A3036 RMK A01 T00391061  RH  048%=      5-min Rain = 0
KWVS 011648Z 02009KT 04/M06 A3036 RMK A01 T00391061  RH  048%=      5-min Rain = 0
KWVS 011649Z 03010KT 04/M06 A3036 RMK A01 T00401061  RH  048%=      5-min Rain = 0
KWVS 011650Z 02009KT 04/M06 A3036 RMK A01 T00391062  RH  047%=      5-min Rain = 0
KWVS 011651Z 02010KT 04/M06 A3036 RMK A01 T00391062  RH  048%=      5-min Rain = 0
KWVS 011652Z 02009KT 04/M06 A3036 RMK A01 T00391060  RH  048%=      5-min Rain = 0
KWVS 011653Z 02008KT 04/M06 A3036 RMK A01 T00401060  RH  048%=      5-min Rain = 0
KWVS 011654Z 02009KT 04/M06 A3036 RMK A01 T00401060  RH  048%=      5-min Rain = 0
KWVS 011655Z 01011KT 04/M06 A3036 RMK A01 T00401060  RH  048%=      5-min Rain = 0
KWVS 011656Z 02010KT 04/M06 A3036 RMK A01 T00401060  RH  048%=      5-min Rain = 0
KWVS 011657Z 01010KT 04/M06 A3036 RMK A01 T00401060  RH  048%=      5-min Rain = 0
KWVS 011658Z 01012KT 04/M06 A3036 RMK A01 T00401060  RH  048%=      5-min Rain = 0
KWVS 011659Z 02011KT 04/M06 A3036 RMK A01 T00411062  RH  047%=      5-min Rain = 0
KWVS 011700Z 02011KT 04/M06 A3036 RMK A01 T00411062  RH  047%=      5-min Rain = 0
KWVS 011701Z 02011KT 04/M06 A3036 RMK A01 T00401063  RH  047%=      5-min Rain = 0
KWVS 011702Z 03011KT 04/M06 A3036 RMK A01 T00401064  RH  047%=      5-min Rain = 0
KWVS 011703Z 03009KT 04/M06 A3036 RMK A01 T00391063  RH  047%=      5-min Rain = 0
KWVS 011704Z 03009KT 04/M06 A3036 RMK A01 T00391062  RH  048%=      5-min Rain = 0
KWVS 011705Z 01010KT 04/M06 A3036 RMK A01 T00391061  RH  048%=      5-min Rain = 0
KWVS 011706Z 00010KT 04/M06 A3036 RMK A01 T00391061  RH  048%=      5-min Rain = 0
KWVS 011707Z 00010KT 04/M06 A3036 RMK A01 T00391061  RH  048%=      5-min Rain = 0
KWVS 011708Z 01009KT 04/M06 A3036 RMK A01 T00391059  RH  049%=      5-min Rain = 0
KWVS 011709Z 01009KT 04/M06 A3036 RMK A01 T00411058  RH  048%=      5-min Rain = 0
KWVS 011710Z 01010KT 04/M06 A3036 RMK A01 T00421060  RH  047%=      5-min Rain = 0
KWVS 011711Z 01011KT 04/M06 A3037 RMK A01 T00431061  RH  047%=      5-min Rain = 0
KWVS 011712Z 01010KT 04/M06 A3037 RMK A01 T00431062  RH  046%=      5-min Rain = 0
KWVS 011713Z 01010KT 04/M06 A3037 RMK A01 T00421063  RH  046%=      5-min Rain = 0
KWVS 011714Z 02010KT 04/M06 A3037 RMK A01 T00421063  RH  046%=      5-min Rain = 0
KWVS 011715Z 02010KT 04/M06 A3037 RMK A01 T00421062  RH  047%=      5-min Rain = 0
KWVS 011716Z 02009KT 04/M06 A3038 RMK A01 T00421061  RH  047%=      5-min Rain = 0
KWVS 011717Z 02009KT 04/M06 A3038 RMK A01 T00421062  RH  047%=      5-min Rain = 0
KWVS 011718Z 02009KT 04/M06 A3038 RMK A01 T00421061  RH  047%=      5-min Rain = 0
KWVS 011719Z 02008KT 04/M06 A3038 RMK A01 T00421060  RH  047%=      5-min Rain = 0
KWVS 011720Z 01009KT 04/M06 A3037 RMK A01 T00421060  RH  047%=      5-min Rain = 0
KWVS 011721Z 35007KT 04/M06 A3037 RMK A01 T00421060  RH  047%=      5-min Rain = 0
KWVS 011722Z 36009KT 04/M06 A3037 RMK A01 T00431059  RH  048%=      5-min Rain = 0
KWVS 011723Z 35012KT 04/M06 A3037 RMK A01 T00441060  RH  047%=      5-min Rain = 0
KWVS 011724Z 36011KT 04/M06 A3037 RMK A01 T00431063  RH  046%=      5-min Rain = 0
KWVS 011725Z 36010KT 04/M06 A3037 RMK A01 T00421064  RH  046%=      5-min Rain = 0
KWVS 011726Z 36008KT 04/M06 A3037 RMK A01 T00411063  RH  047%=      5-min Rain = 0
KWVS 011727Z 36009KT 04/M06 A3037 RMK A01 T00421060  RH  047%=      5-min Rain = 0
KWVS 011728Z 35009KT 04/M06 A3038 RMK A01 T00441061  RH  046%=      5-min Rain = 0
KWVS 011729Z 00009KT 04/M06 A3038 RMK A01 T00441061  RH  047%=      5-min Rain = 0
KWVS 011730Z 35010KT 04/M06 A3038 RMK A01 T00441061  RH  046%=      5-min Rain = 0
KWVS 011731Z 35010KT 04/M06 A3038 RMK A01 T00441061  RH  046%=      5-min Rain = 0
KWVS 011732Z 02008KT 04/M06 A3038 RMK A01 T00431061  RH  047%=      5-min Rain = 0
KWVS 011733Z 01008KT 04/M06 A3038 RMK A01 T00441061  RH  046%=      5-min Rain = 0
KWVS 011734Z 35010KT 04/M06 A3038 RMK A01 T00441061  RH  046%=      5-min Rain = 0
KWVS 011735Z 35011KT 04/M06 A3038 RMK A01 T00441061  RH  046%=      5-min Rain = 0
KWVS 011736Z 35010KT 04/M06 A3038 RMK A01 T00431061  RH  046%=      5-min Rain = 0
KWVS 011737Z 01011KT 04/M06 A3038 RMK A01 T00441061  RH  047%=      5-min Rain = 0
KWVS 011738Z 02012KT 05/M06 A3038 RMK A01 T00451061  RH  046%=      5-min Rain = 0
KWVS 011739Z 02011KT 04/M06 A3038 RMK A01 T00441064  RH  045%=      5-min Rain = 0
KWVS 011740Z 01012KT 04/M06 A3038 RMK A01 T00431064  RH  046%=      5-min Rain = 0
KWVS 011741Z 01011KT 04/M06 A3038 RMK A01 T00431064  RH  046%=      5-min Rain = 0
KWVS 011742Z 02010KT 04/M06 A3038 RMK A01 T00441064  RH  045%=      5-min Rain = 0
KWVS 011743Z 02011KT 05/M06 A3038 RMK A01 T00451062  RH  046%=      5-min Rain = 0
KWVS 011744Z 02010KT 05/M06 A3038 RMK A01 T00451063  RH  045%=      5-min Rain = 0
KWVS 011745Z 02009KT 04/M06 A3038 RMK A01 T00441062  RH  046%=      5-min Rain = 0
KWVS 011746Z 02010KT 04/M06 A3038 RMK A01 T00441062  RH  046%=      5-min Rain = 0
KWVS 011747Z 02010KT 04/M06 A3038 RMK A01 T00441064  RH  045%=      5-min Rain = 0
KWVS 011748Z 01009KT 04/M06 A3038 RMK A01 T00441064  RH  045%=      5-min Rain = 0
KWVS 011749Z 01007KT 04/M06 A3038 RMK A01 T00441063  RH  046%=      5-min Rain = 0
KWVS 011750Z 01007KT 04/M06 A3038 RMK A01 T00441063  RH  046%=      5-min Rain = 0
KWVS 011751Z 03008KT 04/M06 A3039 RMK A01 T00441062  RH  046%=      5-min Rain = 0
KWVS 011752Z 03007KT 05/M06 A3039 RMK A01 T00451062  RH  046%=      5-min Rain = 0
KWVS 011753Z 04007KT 05/M06 A3039 RMK A01 T00451062  RH  046%=      5-min Rain = 0
KWVS 011754Z 05008KT 05/M06 A3039 RMK A01 T00451062  RH  046%=      5-min Rain = 0
KWVS 011755Z 04007KT 05/M06 A3039 RMK A01 T00461062  RH  045%=      5-min Rain = 0
KWVS 011756Z 04008KT 05/M06 A3039 RMK A01 T00461063  RH  045%=      5-min Rain = 0
KWVS 011757Z 03007KT 05/M06 A3039 RMK A01 T00451063  RH  045%=      5-min Rain = 0
KWVS 011758Z 03007KT 05/M06 A3039 RMK A01 T00451062  RH  046%=      5-min Rain = 0
KWVS 011759Z 02008KT 05/M06 A3039 RMK A01 T00461061  RH  046%=      5-min Rain = 0
KWVS 011800Z 01009KT 05/M06 A3038 RMK A01 T00461063  RH  045%=      5-min Rain = 0
KWVS 011801Z 02009KT 05/M07 A3038 RMK A01 T00461065  RH  044%=      5-min Rain = 0
KWVS 011802Z 02009KT 05/M06 A3038 RMK A01 T00461064  RH  045%=      5-min Rain = 0
KWVS 011803Z 02010KT 05/M06 A3038 RMK A01 T00461064  RH  045%=      5-min Rain = 0
KWVS 011804Z 02007KT 05/M06 A3039 RMK A01 T00461064  RH  045%=      5-min Rain = 0
KWVS 011805Z 01007KT 05/M06 A3039 RMK A01 T00461062  RH  045%=      5-min Rain = 0
KWVS 011806Z 02009KT 05/M06 A3039 RMK A01 T00481064  RH  044%=      5-min Rain = 0
KWVS 011807Z 03009KT 05/M07 A3039 RMK A01 T00481065  RH  044%=      5-min Rain = 0
KWVS 011808Z 02009KT 05/M06 A3039 RMK A01 T00491064  RH  044%=      5-min Rain = 0
KWVS 011809Z 02008KT 05/M06 A3039 RMK A01 T00491063  RH  044%=      5-min Rain = 0
KWVS 011810Z 03007KT 05/M06 A3039 RMK A01 T00491063  RH  044%=      5-min Rain = 0
KWVS 011811Z 04009KT 05/M07 A3039 RMK A01 T00491065  RH  043%=      5-min Rain = 0
KWVS 011812Z 03008KT 05/M07 A3039 RMK A01 T00491065  RH  043%=      5-min Rain = 0
KWVS 011813Z 03009KT 05/M06 A3039 RMK A01 T00491064  RH  044%=      5-min Rain = 0
KWVS 011814Z 01009KT 05/M06 A3038 RMK A01 T00491064  RH  044%=      5-min Rain = 0
KWVS 011815Z 01008KT 05/M06 A3038 RMK A01 T00491064  RH  044%=      5-min Rain = 0
KWVS 011816Z 02009KT 05/M06 A3038 RMK A01 T00491064  RH  044%=      5-min Rain = 0
KWVS 011817Z 02009KT 05/M07 A3038 RMK A01 T00491065  RH  043%=      5-min Rain = 0
KWVS 011818Z 02008KT 05/M07 A3038 RMK A01 T00501065  RH  043%=      5-min Rain = 0
KWVS 011819Z 02010KT 05/M07 A3038 RMK A01 T00511065  RH  043%=      5-min Rain = 0
KWVS 011820Z 02009KT 05/M07 A3038 RMK A01 T00511067  RH  042%=      5-min Rain = 0
KWVS 011821Z 03010KT 05/M07 A3039 RMK A01 T00501066  RH  043%=      5-min Rain = 0
KWVS 011822Z 02008KT 05/M07 A3039 RMK A01 T00501065  RH  043%=      5-min Rain = 0
KWVS 011823Z 02009KT 05/M07 A3039 RMK A01 T00501065  RH  043%=      5-min Rain = 0
KWVS 011824Z 03008KT 05/M07 A3039 RMK A01 T00511065  RH  043%=      5-min Rain = 0
KWVS 011825Z 03008KT 05/M07 A3039 RMK A01 T00511065  RH  043%=      5-min Rain = 0
KWVS 011826Z 02007KT 05/M07 A3039 RMK A01 T00501066  RH  043%=      5-min Rain = 0
KWVS 011827Z 03006KT 05/M07 A3039 RMK A01 T00501066  RH  043%=      5-min Rain = 0
KWVS 011828Z 04008KT 05/M06 A3039 RMK A01 T00501064  RH  043%=      5-min Rain = 0
KWVS 011829Z 03006KT 05/M07 A3039 RMK A01 T00501066  RH  043%=      5-min Rain = 0
KWVS 011830Z 02006KT 05/M07 A3039 RMK A01 T00491066  RH  043%=      5-min Rain = 0
KWVS 011831Z 04008KT 05/M07 A3039 RMK A01 T00491065  RH  043%=      5-min Rain = 0
KWVS 011832Z 05006KT 05/M06 A3039 RMK A01 T00511063  RH  044%=      5-min Rain = 0
KWVS 011833Z 04005KT 05/M06 A3039 RMK A01 T00521063  RH  043%=      5-min Rain = 0
KWVS 011834Z 04006KT 05/M06 A3039 RMK A01 T00521063  RH  043%=      5-min Rain = 0
KWVS 011835Z 03008KT 05/M07 A3038 RMK A01 T00521066  RH  042%=      5-min Rain = 0
KWVS 011836Z 02009KT 05/M07 A3038 RMK A01 T00511067  RH  042%=      5-min Rain = 0
KWVS 011837Z 02009KT 05/M07 A3038 RMK A01 T00511066  RH  042%=      5-min Rain = 0
KWVS 011838Z 02007KT 05/M07 A3039 RMK A01 T00511066  RH  043%=      5-min Rain = 0
KWVS 011839Z 01006KT 05/M06 A3039 RMK A01 T00511064  RH  043%=      5-min Rain = 0
KWVS 011840Z 01006KT 05/M06 A3038 RMK A01 T00511064  RH  043%=      5-min Rain = 0
KWVS 011841Z 02006KT 05/M06 A3038 RMK A01 T00511064  RH  043%=      5-min Rain = 0
KWVS 011842Z 04006KT 05/M06 A3038 RMK A01 T00511063  RH  043%=      5-min Rain = 0
KWVS 011843Z 05007KT 05/M06 A3038 RMK A01 T00521063  RH  043%=      5-min Rain = 0
KWVS 011844Z 04008KT 05/M06 A3038 RMK A01 T00521063  RH  043%=      5-min Rain = 0
KWVS 011845Z 05008KT 05/M06 A3038 RMK A01 T00521063  RH  043%=      5-min Rain = 0
KWVS 011846Z 05006KT 05/M06 A3038 RMK A01 T00521064  RH  043%=      5-min Rain = 0
KWVS 011847Z 03007KT 05/M06 A3038 RMK A01 T00511064  RH  043%=      5-min Rain = 0
KWVS 011848Z 02007KT 05/M06 A3038 RMK A01 T00521064  RH  043%=      5-min Rain = 0
KWVS 011849Z 03007KT 05/M07 A3038 RMK A01 T00531065  RH  042%=      5-min Rain = 0
KWVS 011850Z 03005KT 05/M06 A3038 RMK A01 T00531064  RH  042%=      5-min Rain = 0
KWVS 011851Z 04006KT 05/M07 A3038 RMK A01 T00531065  RH  042%=      5-min Rain = 0
KWVS 011852Z 04007KT 05/M07 A3038 RMK A01 T00531065  RH  042%=      5-min Rain = 0
KWVS 011853Z 05007KT 05/M07 A3038 RMK A01 T00531065  RH  043%=      5-min Rain = 0
KWVS 011854Z 04006KT 05/M06 A3038 RMK A01 T00531064  RH  043%=      5-min Rain = 0
KWVS 011855Z 04004KT 06/M06 A3038 RMK A01 T00551062  RH  043%=      5-min Rain = 0
KWVS 011856Z 04005KT 06/M06 A3038 RMK A01 T00561063  RH  042%=      5-min Rain = 0
KWVS 011857Z 03006KT 06/M06 A3038 RMK A01 T00571064  RH  041%=      5-min Rain = 0
KWVS 011858Z 02006KT 06/M06 A3038 RMK A01 T00571064  RH  041%=      5-min Rain = 0
KWVS 011859Z 01007KT 06/M07 A3038 RMK A01 T00571065  RH  041%=      5-min Rain = 0
KWVS 011900Z 01008KT 06/M07 A3038 RMK A01 T00581069  RH  040%=      5-min Rain = 0
KWVS 011901Z 02008KT 06/M07 A3038 RMK A01 T00571070  RH  040%=      5-min Rain = 0
KWVS 011902Z 03007KT 06/M07 A3038 RMK A01 T00561069  RH  040%=      5-min Rain = 0
KWVS 011903Z 02005KT 06/M07 A3038 RMK A01 T00561068  RH  040%=      5-min Rain = 0
KWVS 011904Z 03005KT 06/M07 A3038 RMK A01 T00551069  RH  040%=      5-min Rain = 0
KWVS 011905Z 02005KT 06/M07 A3038 RMK A01 T00561069  RH  040%=      5-min Rain = 0
KWVS 011906Z 01008KT 06/M07 A3038 RMK A01 T00571069  RH  040%=      5-min Rain = 0
KWVS 011907Z 01007KT 06/M07 A3038 RMK A01 T00581072  RH  039%=      5-min Rain = 0
KWVS 011908Z 01007KT 06/M07 A3038 RMK A01 T00571074  RH  038%=      5-min Rain = 0
KWVS 011909Z 03006KT 06/M07 A3038 RMK A01 T00571072  RH  039%=      5-min Rain = 0
KWVS 011910Z 02007KT 06/M07 A3038 RMK A01 T00581072  RH  039%=      5-min Rain = 0
KWVS 011911Z 00005KT 06/M07 A3038 RMK A01 T00581072  RH  039%=      5-min Rain = 0
KWVS 011912Z 00007KT 06/M07 A3038 RMK A01 T00581073  RH  038%=      5-min Rain = 0
KWVS 011913Z 02006KT 06/M07 A3038 RMK A01 T00581073  RH  038%=      5-min Rain = 0
KWVS 011914Z 01007KT 06/M07 A3038 RMK A01 T00591071  RH  039%=      5-min Rain = 0
KWVS 011915Z 02008KT 06/M08 A3037 RMK A01 T00611075  RH  037%=      5-min Rain = 0
KWVS 011916Z 02007KT 06/M08 A3037 RMK A01 T00611077  RH  036%=      5-min Rain = 0
KWVS 011917Z 02005KT 06/M08 A3037 RMK A01 T00611079  RH  036%=      5-min Rain = 0
KWVS 011918Z 01008KT 06/M08 A3037 RMK A01 T00621076  RH  036%=      5-min Rain = 0
KWVS 011919Z 02008KT 06/M08 A3037 RMK A01 T00621077  RH  036%=      5-min Rain = 0
KWVS 011920Z 04008KT 06/M08 A3037 RMK A01 T00611077  RH  036%=      5-min Rain = 0
KWVS 011921Z 04008KT 06/M08 A3037 RMK A01 T00611077  RH  037%=      5-min Rain = 0
KWVS 011922Z 04007KT 06/M08 A3037 RMK A01 T00601077  RH  037%=      5-min Rain = 0
KWVS 011923Z 04006KT 06/M08 A3037 RMK A01 T00601075  RH  037%=      5-min Rain = 0
KWVS 011924Z 04006KT 06/M08 A3037 RMK A01 T00621076  RH  036%=      5-min Rain = 0
KWVS 011925Z 04008KT 06/M08 A3037 RMK A01 T00611077  RH  036%=      5-min Rain = 0
KWVS 011926Z 03006KT 06/M08 A3037 RMK A01 T00601077  RH  037%=      5-min Rain = 0
KWVS 011927Z 02006KT 06/M07 A3037 RMK A01 T00611072  RH  038%=      5-min Rain = 0
KWVS 011928Z 04006KT 06/M08 A3037 RMK A01 T00631075  RH  037%=      5-min Rain = 0
KWVS 011929Z 04005KT 06/M08 A3037 RMK A01 T00621079  RH  035%=      5-min Rain = 0
KWVS 011930Z 02005KT 06/M08 A3037 RMK A01 T00631080  RH  035%=      5-min Rain = 0
KWVS 011931Z 36005KT 06/M08 A3037 RMK A01 T00631077  RH  036%=      5-min Rain = 0
KWVS 011932Z 00005KT 06/M08 A3037 RMK A01 T00631077  RH  036%=      5-min Rain = 0
KWVS 011933Z 00006KT 06/M08 A3037 RMK A01 T00631077  RH  036%=      5-min Rain = 0
KWVS 011934Z 03007KT 06/M08 A3037 RMK A01 T00631077  RH  036%=      5-min Rain = 0
KWVS 011935Z 03008KT 06/M08 A3037 RMK A01 T00641081  RH  035%=      5-min Rain = 0
KWVS 011936Z 02009KT 07/M09 A3037 RMK A01 T00651087  RH  033%=      5-min Rain = 0
KWVS 011937Z 01008KT 07/M09 A3037 RMK A01 T00651089  RH  032%=      5-min Rain = 0
KWVS 011938Z 02008KT 07/M09 A3037 RMK A01 T00651089  RH  032%=      5-min Rain = 0
KWVS 011939Z 03008KT 07/M09 A3037 RMK A01 T00661085  RH  033%=      5-min Rain = 0
KWVS 011940Z 04009KT 07/M09 A3037 RMK A01 T00681086  RH  033%=      5-min Rain = 0
KWVS 011941Z 04007KT 07/M09 A3037 RMK A01 T00671087  RH  032%=      5-min Rain = 0
KWVS 011942Z 03005KT 07/M09 A3037 RMK A01 T00671085  RH  033%=      5-min Rain = 0
KWVS 011943Z 04005KT 07/M08 A3037 RMK A01 T00671084  RH  033%=      5-min Rain = 0
KWVS 011944Z 03005KT 07/M08 A3037 RMK A01 T00671084  RH  033%=      5-min Rain = 0
KWVS 011945Z 02007KT 07/M08 A3037 RMK A01 T00681081  RH  034%=      5-min Rain = 0
KWVS 011946Z 01009KT 07/M08 A3037 RMK A01 T00691083  RH  033%=      5-min Rain = 0
KWVS 011947Z 02007KT 07/M08 A3037 RMK A01 T00691082  RH  033%=      5-min Rain = 0
KWVS 011948Z 02005KT 07/M08 A3037 RMK A01 T00691083  RH  033%=      5-min Rain = 0
KWVS 011949Z 03005KT 07/M08 A3037 RMK A01 T00691083  RH  033%=      5-min Rain = 0
KWVS 011950Z 03006KT 07/M08 A3037 RMK A01 T00691081  RH  033%=      5-min Rain = 0
KWVS 011951Z 02008KT 07/M08 A3037 RMK A01 T00711082  RH  033%=      5-min Rain = 0
KWVS 011952Z 01008KT 07/M09 A3037 RMK A01 T00721086  RH  032%=      5-min Rain = 0
KWVS 011953Z 03006KT 07/M09 A3037 RMK A01 T00711090  RH  031%=      5-min Rain = 0
KWVS 011954Z 01006KT 07/M09 A3037 RMK A01 T00701093  RH  030%=      5-min Rain = 0
KWVS 011955Z 35008KT 07/M09 A3037 RMK A01 T00701090  RH  031%=      5-min Rain = 0
KWVS 011956Z 00005KT 07/M09 A3037 RMK A01 T00691093  RH  030%=      5-min Rain = 0
KWVS 011957Z 01005KT 07/M09 A3037 RMK A01 T00711088  RH  031%=      5-min Rain = 0
KWVS 011958Z 00007KT 07/M09 A3037 RMK A01 T00741085  RH  031%=      5-min Rain = 0
KWVS 011959Z 35007KT 08/M09 A3037 RMK A01 T00761088  RH  030%=      5-min Rain = 0
KWVS 012000Z 00006KT 08/M09 A3037 RMK A01 T00751089  RH  030%=      5-min Rain = 0
KWVS 012001Z 02008KT 07/M09 A3037 RMK A01 T00741087  RH  031%=      5-min Rain = 0
KWVS 012002Z 03007KT 08/M10 A3037 RMK A01 T00761095  RH  029%=      5-min Rain = 0
KWVS 012003Z 04008KT 08/M10 A3037 RMK A01 T00751095  RH  029%=      5-min Rain = 0
KWVS 012004Z 04008KT 07/M09 A3037 RMK A01 T00741093  RH  029%=      5-min Rain = 0
KWVS 012005Z 03007KT 07/M10 A3037 RMK A01 T00731095  RH  029%=      5-min Rain = 0
KWVS 012006Z 01005KT 07/M10 A3036 RMK A01 T00721096  RH  029%=      5-min Rain = 0
KWVS 012007Z 00005KT 07/M10 A3036 RMK A01 T00701096  RH  029%=      5-min Rain = 0
KWVS 012008Z 00007KT 07/M09 A3036 RMK A01 T00701093  RH  030%=      5-min Rain = 0
KWVS 012009Z 35008KT 07/M09 A3036 RMK A01 T00721091  RH  030%=      5-min Rain = 0
KWVS 012010Z 01007KT 08/M09 A3036 RMK A01 T00751094  RH  029%=      5-min Rain = 0
KWVS 012011Z 02006KT 08/M10 A3036 RMK A01 T00761095  RH  029%=      5-min Rain = 0
KWVS 012012Z 02005KT 08/M10 A3036 RMK A01 T00771095  RH  028%=      5-min Rain = 0
KWVS 012013Z 03005KT 08/M09 A3036 RMK A01 T00771094  RH  029%=      5-min Rain = 0
KWVS 012014Z 00004KT 08/M09 A3036 RMK A01 T00771090  RH  029%=      5-min Rain = 0
KWVS 012015Z 03003KT 08/M09 A3036 RMK A01 T00801091  RH  029%=      5-min Rain = 0
KWVS 012016Z 03003KT 08/M10 A3036 RMK A01 T00781095  RH  028%=      5-min Rain = 0
KWVS 012017Z 02003KT 08/M09 A3036 RMK A01 T00761093  RH  029%=      5-min Rain = 0
KWVS 012018Z 02007KT 08/M09 A3036 RMK A01 T00771088  RH  030%=      5-min Rain = 0
KWVS 012019Z 02005KT 08/M09 A3036 RMK A01 T00781092  RH  029%=      5-min Rain = 0
KWVS 012020Z 04004KT 08/M10 A3036 RMK A01 T00761096  RH  028%=      5-min Rain = 0
KWVS 012021Z 06004KT 08/M09 A3036 RMK A01 T00761094  RH  029%=      5-min Rain = 0
KWVS 012022Z 07006KT 08/M09 A3036 RMK A01 T00771091  RH  029%=      5-min Rain = 0
KWVS 012023Z 05006KT 08/M10 A3036 RMK A01 T00781098  RH  027%=      5-min Rain = 0
KWVS 012024Z 02009KT 08/M11 A3036 RMK A01 T00791105  RH  026%=      5-min Rain = 0
KWVS 012025Z 03007G12KT 08/M12 A3036 RMK A01 T00791116  RH  024%=      5-min Rain = 0
KWVS 012026Z 03009KT 08/M11 A3036 RMK A01 T00791111  RH  025%=      5-min Rain = 0
KWVS 012027Z 03006KT 08/M11 A3036 RMK A01 T00791112  RH  025%=      5-min Rain = 0
KWVS 012028Z 02006KT 08/M11 A3036 RMK A01 T00781114  RH  024%=      5-min Rain = 0
KWVS 012029Z 03007KT 08/M11 A3036 RMK A01 T00771110  RH  025%=      5-min Rain = 0
KWVS 012030Z 02007KT 08/M11 A3036 RMK A01 T00771108  RH  026%=      5-min Rain = 0
KWVS 012031Z 02005KT 08/M11 A3036 RMK A01 T00771109  RH  025%=      5-min Rain = 0
KWVS 012032Z 00005KT 08/M11 A3036 RMK A01 T00771106  RH  026%=      5-min Rain = 0
KWVS 012033Z 02005KT 08/M11 A3036 RMK A01 T00781106  RH  026%=      5-min Rain = 0
KWVS 012034Z 03006KT 08/M10 A3036 RMK A01 T00801102  RH  026%=      5-min Rain = 0
KWVS 012035Z 02006KT 08/M10 A3036 RMK A01 T00831099  RH  026%=      5-min Rain = 0
KWVS 012036Z 03007KT 08/M10 A3036 RMK A01 T00841103  RH  026%=      5-min Rain = 0
KWVS 012037Z 04006KT 08/M10 A3036 RMK A01 T00821103  RH  026%=      5-min Rain = 0
KWVS 012038Z 03005KT 08/M10 A3036 RMK A01 T00821104  RH  026%=      5-min Rain = 0
KWVS 012039Z 04007KT 08/M10 A3036 RMK A01 T00811101  RH  026%=      5-min Rain = 0
KWVS 012040Z 06005KT 08/M10 A3036 RMK A01 T00821102  RH  026%=      5-min Rain = 0
KWVS 012041Z 03005KT 08/M10 A3035 RMK A01 T00831098  RH  027%=      5-min Rain = 0
KWVS 012042Z 02006KT 08/M10 A3035 RMK A01 T00841099  RH  026%=      5-min Rain = 0
KWVS 012043Z 02005KT 08/M10 A3035 RMK A01 T00841101  RH  026%=      5-min Rain = 0
KWVS 012044Z 04005KT 08/M10 A3035 RMK A01 T00831103  RH  026%=      5-min Rain = 0
KWVS 012045Z 04007KT 08/M10 A3035 RMK A01 T00821102  RH  026%=      5-min Rain = 0
KWVS 012046Z 03007KT 08/M10 A3035 RMK A01 T00821102  RH  026%=      5-min Rain = 0
KWVS 012047Z 02008KT 08/M10 A3035 RMK A01 T00821104  RH  026%=      5-min Rain = 0
KWVS 012048Z 02007KT 08/M11 A3035 RMK A01 T00811106  RH  025%=      5-min Rain = 0
KWVS 012049Z 03007KT 08/M11 A3035 RMK A01 T00801105  RH  026%=      5-min Rain = 0
KWVS 012050Z 03006KT 08/M11 A3035 RMK A01 T00801105  RH  026%=      5-min Rain = 0
KWVS 012051Z 03005KT 08/M11 A3035 RMK A01 T00801105  RH  026%=      5-min Rain = 0
KWVS 012052Z 02005KT 08/M11 A3035 RMK A01 T00801105  RH  026%=      5-min Rain = 0
KWVS 012053Z 00008KT 08/M10 A3035 RMK A01 T00811103  RH  026%=      5-min Rain = 0
KWVS 012054Z 01008KT 08/M11 A3035 RMK A01 T00821106  RH  025%=      5-min Rain = 0
KWVS 012055Z 02005KT 08/M11 A3035 RMK A01 T00801109  RH  025%=      5-min Rain = 0
KWVS 012056Z 01006KT 08/M11 A3035 RMK A01 T00791109  RH  025%=      5-min Rain = 0
KWVS 012057Z 02005KT 08/M11 A3035 RMK A01 T00791107  RH  025%=      5-min Rain = 0
KWVS 012058Z 05007KT 08/M11 A3035 RMK A01 T00811105  RH  026%=      5-min Rain = 0
KWVS 012059Z 05006KT 08/M10 A3035 RMK A01 T00811104  RH  026%=      5-min Rain = 0
KWVS 012100Z 03008KT 08/M11 A3035 RMK A01 T00821105  RH  025%=      5-min Rain = 0
KWVS 012101Z 03009KT 08/M11 A3035 RMK A01 T00811111  RH  024%=      5-min Rain = 0
KWVS 012102Z 04008KT 08/M12 A3035 RMK A01 T00811117  RH  023%=      5-min Rain = 0
KWVS 012103Z 04007KT 08/M11 A3035 RMK A01 T00791114  RH  024%=      5-min Rain = 0
KWVS 012104Z 01009KT 08/M11 A3035 RMK A01 T00791111  RH  025%=      5-min Rain = 0
KWVS 012105Z 01007KT 08/M11 A3035 RMK A01 T00801113  RH  024%=      5-min Rain = 0
KWVS 012106Z 03005KT 08/M11 A3035 RMK A01 T00791113  RH  024%=      5-min Rain = 0
KWVS 012107Z 02006KT 08/M11 A3035 RMK A01 T00821109  RH  025%=      5-min Rain = 0
KWVS 012108Z 03006KT 08/M11 A3035 RMK A01 T00831114  RH  023%=      5-min Rain = 0
KWVS 012109Z 03006KT 08/M12 A3035 RMK A01 T00831115  RH  023%=      5-min Rain = 0
KWVS 012110Z 05009KT 08/M12 A3035 RMK A01 T00831116  RH  023%=      5-min Rain = 0
KWVS 012111Z 05009KT 08/M12 A3035 RMK A01 T00821117  RH  023%=      5-min Rain = 0
KWVS 012112Z 04009KT 08/M12 A3035 RMK A01 T00811116  RH  023%=      5-min Rain = 0
KWVS 012113Z 06007KT 08/M11 A3035 RMK A01 T00811114  RH  024%=      5-min Rain = 0
KWVS 012114Z 06008KT 08/M11 A3035 RMK A01 T00811112  RH  024%=      5-min Rain = 0
KWVS 012115Z 07006KT 08/M12 A3035 RMK A01 T00811115  RH  024%=      5-min Rain = 0
KWVS 012116Z 07007KT 08/M11 A3035 RMK A01 T00811113  RH  024%=      5-min Rain = 0
KWVS 012117Z 07007KT 08/M12 A3035 RMK A01 T00801115  RH  024%=      5-min Rain = 0
KWVS 012118Z 06007KT 08/M11 A3035 RMK A01 T00791113  RH  024%=      5-min Rain = 0
KWVS 012119Z 06008KT 08/M11 A3035 RMK A01 T00791114  RH  024%=      5-min Rain = 0
KWVS 012120Z 05006KT 08/M12 A3035 RMK A01 T00801115  RH  024%=      5-min Rain = 0
KWVS 012121Z 06008KT 08/M12 A3035 RMK A01 T00801116  RH  023%=      5-min Rain = 0
KWVS 012122Z 05009KT 08/M12 A3035 RMK A01 T00801119  RH  023%=      5-min Rain = 0
KWVS 012123Z 06008KT 08/M12 A3035 RMK A01 T00801118  RH  023%=      5-min Rain = 0
KWVS 012124Z 07008KT 08/M12 A3035 RMK A01 T00801117  RH  023%=      5-min Rain = 0
KWVS 012125Z 07007KT 08/M11 A3035 RMK A01 T00791114  RH  024%=      5-min Rain = 0
KWVS 012126Z 07006KT 08/M11 A3035 RMK A01 T00801112  RH  024%=      5-min Rain = 0
KWVS 012127Z 07005KT 08/M11 A3035 RMK A01 T00801113  RH  024%=      5-min Rain = 0
KWVS 012128Z 07004KT 08/M11 A3035 RMK A01 T00811107  RH  025%=      5-min Rain = 0
KWVS 012129Z 06005KT 08/M11 A3035 RMK A01 T00821108  RH  025%=      5-min Rain = 0
KWVS 012130Z 05005KT 08/M12 A3035 RMK A01 T00821118  RH  023%=      5-min Rain = 0
KWVS 012131Z 05003KT 08/M12 A3035 RMK A01 T00811120  RH  023%=      5-min Rain = 0
KWVS 012132Z 07004KT 08/M11 A3035 RMK A01 T00811113  RH  024%=      5-min Rain = 0
KWVS 012133Z 05009KT 08/M11 A3035 RMK A01 T00821113  RH  024%=      5-min Rain = 0
KWVS 012134Z 05008KT 08/M12 A3035 RMK A01 T00821117  RH  023%=      5-min Rain = 0
KWVS 012135Z 06005KT 08/M12 A3035 RMK A01 T00811120  RH  023%=      5-min Rain = 0
KWVS 012136Z 07005KT 08/M12 A3035 RMK A01 T00801119  RH  023%=      5-min Rain = 0
KWVS 012137Z 06005KT 08/M12 A3035 RMK A01 T00801115  RH  024%=      5-min Rain = 0
KWVS 012138Z 05005KT 08/M12 A3035 RMK A01 T00801116  RH  023%=      5-min Rain = 0
KWVS 012139Z 06006KT 08/M12 A3035 RMK A01 T00811116  RH  023%=      5-min Rain = 0
KWVS 012140Z 05008KT 08/M12 A3035 RMK A01 T00811115  RH  024%=      5-min Rain = 0
KWVS 012141Z 04007KT 08/M12 A3035 RMK A01 T00811118  RH  023%=      5-min Rain = 0
KWVS 012142Z 05006KT 08/M12 A3035 RMK A01 T00811120  RH  023%=      5-min Rain = 0
KWVS 012143Z 08004KT 08/M12 A3035 RMK A01 T00801119  RH  023%=      5-min Rain = 0
KWVS 012144Z 07004KT 08/M11 A3035 RMK A01 T00801112  RH  024%=      5-min Rain = 0
KWVS 012145Z 06004KT 08/M12 A3035 RMK A01 T00811116  RH  023%=      5-min Rain = 0
KWVS 012146Z 07004KT 08/M11 A3035 RMK A01 T00811112  RH  024%=      5-min Rain = 0
KWVS 012147Z 05004KT 08/M11 A3035 RMK A01 T00811114  RH  024%=      5-min Rain = 0
KWVS 012148Z 05004KT 08/M11 A3035 RMK A01 T00821114  RH  024%=      5-min Rain = 0
KWVS 012149Z 03005KT 08/M11 A3035 RMK A01 T00821114  RH  024%=      5-min Rain = 0
KWVS 012150Z 04004KT 08/M12 A3035 RMK A01 T00831121  RH  022%=      5-min Rain = 0
KWVS 012151Z 05004KT 08/M13 A3035 RMK A01 T00831126  RH  021%=      5-min Rain = 0
KWVS 012152Z 07006KT 08/M12 A3035 RMK A01 T00831119  RH  023%=      5-min Rain = 0
KWVS 012153Z 06007KT 08/M11 A3035 RMK A01 T00831112  RH  024%=      5-min Rain = 0
KWVS 012154Z 06006KT 08/M11 A3035 RMK A01 T00821114  RH  024%=      5-min Rain = 0
KWVS 012155Z 05005KT 08/M12 A3035 RMK A01 T00821116  RH  023%=      5-min Rain = 0
KWVS 012156Z 05005KT 08/M12 A3035 RMK A01 T00811120  RH  023%=      5-min Rain = 0
KWVS 012157Z 05005KT 08/M12 A3035 RMK A01 T00811120  RH  023%=      5-min Rain = 0
KWVS 012158Z 05004KT 08/M12 A3035 RMK A01 T00811121  RH  023%=      5-min Rain = 0
KWVS 012159Z 05006KT 08/M12 A3035 RMK A01 T00821116  RH  023%=      5-min Rain = 0
KWVS 012200Z 05007KT 08/M12 A3035 RMK A01 T00821120  RH  022%=      5-min Rain = 0
KWVS 012201Z 07008KT 08/M12 A3035 RMK A01 T00821119  RH  023%=      5-min Rain = 0
KWVS 012202Z 08007KT 08/M12 A3035 RMK A01 T00821118  RH  023%=      5-min Rain = 0
KWVS 012203Z 08006KT 08/M12 A3035 RMK A01 T00811118  RH  023%=      5-min Rain = 0
KWVS 012204Z 09005KT 08/M12 A3035 RMK A01 T00811120  RH  023%=      5-min Rain = 0
KWVS 012205Z 08003KT 08/M12 A3035 RMK A01 T00801122  RH  022%=      5-min Rain = 0
KWVS 012206Z 06003KT 08/M12 A3035 RMK A01 T00811115  RH  024%=      5-min Rain = 0
KWVS 012207Z 04005KT 08/M11 A3035 RMK A01 T00821111  RH  024%=      5-min Rain = 0
KWVS 012208Z 06005KT 08/M11 A3035 RMK A01 T00821112  RH  024%=      5-min Rain = 0
KWVS 012209Z 07007KT 08/M11 A3034 RMK A01 T00821109  RH  025%=      5-min Rain = 0
KWVS 012210Z 05006KT 08/M11 A3034 RMK A01 T00821113  RH  024%=      5-min Rain = 0
KWVS 012211Z 06006KT 08/M12 A3034 RMK A01 T00821117  RH  023%=      5-min Rain = 0
KWVS 012212Z 07004KT 08/M12 A3034 RMK A01 T00811120  RH  023%=      5-min Rain = 0
KWVS 012213Z 07004KT 08/M12 A3035 RMK A01 T00801119  RH  023%=      5-min Rain = 0
KWVS 012214Z 08004KT 08/M11 A3035 RMK A01 T00801113  RH  024%=      5-min Rain = 0
KWVS 012215Z 08006KT 08/M11 A3035 RMK A01 T00811109  RH  025%=      5-min Rain = 0
KWVS 012216Z 08006KT 08/M11 A3035 RMK A01 T00821112  RH  024%=      5-min Rain = 0
KWVS 012217Z 07006KT 08/M11 A3035 RMK A01 T00811114  RH  024%=      5-min Rain = 0
KWVS 012218Z 08007KT 08/M11 A3035 RMK A01 T00801113  RH  024%=      5-min Rain = 0
KWVS 012219Z 08007KT 08/M11 A3035 RMK A01 T00801113  RH  024%=      5-min Rain = 0
KWVS 012220Z 09006KT 08/M12 A3035 RMK A01 T00801117  RH  023%=      5-min Rain = 0
KWVS 012221Z 08007KT 08/M12 A3035 RMK A01 T00801118  RH  023%=      5-min Rain = 0
KWVS 012222Z 07007KT 08/M12 A3035 RMK A01 T00811116  RH  023%=      5-min Rain = 0
KWVS 012223Z 08005KT 08/M12 A3035 RMK A01 T00811118  RH  023%=      5-min Rain = 0
KWVS 012224Z 09004KT 08/M12 A3035 RMK A01 T00811118  RH  023%=      5-min Rain = 0
KWVS 012225Z 08004KT 08/M12 A3035 RMK A01 T00811117  RH  023%=      5-min Rain = 0
KWVS 012226Z 08003KT 08/M11 A3035 RMK A01 T00811112  RH  024%=      5-min Rain = 0
KWVS 012227Z 07005KT 08/M12 A3035 RMK A01 T00821115  RH  023%=      5-min Rain = 0
KWVS 012228Z 05007KT 08/M12 A3035 RMK A01 T00821117  RH  023%=      5-min Rain = 0
KWVS 012229Z 06005KT 08/M12 A3035 RMK A01 T00821123  RH  022%=      5-min Rain = 0
KWVS 012230Z 08004KT 08/M12 A3035 RMK A01 T00811122  RH  022%=      5-min Rain = 0
KWVS 012231Z 07005KT 08/M12 A3035 RMK A01 T00811116  RH  023%=      5-min Rain = 0
KWVS 012232Z 07005KT 08/M12 A3035 RMK A01 T00811117  RH  023%=      5-min Rain = 0
KWVS 012233Z 07004KT 08/M12 A3035 RMK A01 T00811119  RH  023%=      5-min Rain = 0
KWVS 012234Z 06006KT 08/M12 A3035 RMK A01 T00811119  RH  023%=      5-min Rain = 0
KWVS 012235Z 04006KT 08/M12 A3035 RMK A01 T00811119  RH  023%=      5-min Rain = 0
KWVS 012236Z 05007KT 08/M12 A3035 RMK A01 T00811123  RH  022%=      5-min Rain = 0
KWVS 012237Z 05007KT 08/M12 A3035 RMK A01 T00811120  RH  023%=      5-min Rain = 0
KWVS 012238Z 06009KT 08/M12 A3035 RMK A01 T00821120  RH  023%=      5-min Rain = 0
KWVS 012239Z 07008KT 08/M12 A3035 RMK A01 T00811122  RH  022%=      5-min Rain = 0
KWVS 012240Z 07007KT 08/M12 A3035 RMK A01 T00801120  RH  023%=      5-min Rain = 0
KWVS 012241Z 07007KT 08/M12 A3035 RMK A01 T00801119  RH  023%=      5-min Rain = 0
KWVS 012242Z 06007KT 08/M12 A3035 RMK A01 T00801119  RH  023%=      5-min Rain = 0
KWVS 012243Z 06006KT 08/M12 A3035 RMK A01 T00801122  RH  022%=      5-min Rain = 0
KWVS 012244Z 06008KT 08/M12 A3035 RMK A01 T00811122  RH  022%=      5-min Rain = 0
KWVS 012245Z 05006KT 08/M12 A3035 RMK A01 T00811122  RH  022%=      5-min Rain = 0
KWVS 012246Z 06006KT 08/M12 A3035 RMK A01 T00811122  RH  022%=      5-min Rain = 0
KWVS 012247Z 06006KT 08/M12 A3035 RMK A01 T00821123  RH  022%=      5-min Rain = 0
KWVS 012248Z 06006KT 08/M12 A3035 RMK A01 T00821124  RH  022%=      5-min Rain = 0
KWVS 012249Z 06006KT 08/M12 A3035 RMK A01 T00821123  RH  022%=      5-min Rain = 0
KWVS 012250Z 06005KT 08/M12 A3035 RMK A01 T00821123  RH  022%=      5-min Rain = 0
KWVS 012251Z 07004KT 08/M12 A3035 RMK A01 T00811123  RH  022%=      5-min Rain = 0
KWVS 012252Z 07005KT 08/M12 A3035 RMK A01 T00811120  RH  023%=      5-min Rain = 0
KWVS 012253Z 07006KT 08/M13 A3035 RMK A01 T00811125  RH  022%=      5-min Rain = 0
KWVS 012254Z 09005KT 08/M13 A3035 RMK A01 T00811125  RH  022%=      5-min Rain = 0
KWVS 012255Z 08005KT 08/M13 A3035 RMK A01 T00811125  RH  022%=      5-min Rain = 0
KWVS 012256Z 05005G10KT 08/M12 A3035 RMK A01 T00811124  RH  022%=      5-min Rain = 0
KWVS 012257Z 04008KT 08/M13 A3035 RMK A01 T00821125  RH  022%=      5-min Rain = 0
KWVS 012258Z 05006KT 08/M13 A3035 RMK A01 T00821128  RH  021%=      5-min Rain = 0
KWVS 012259Z 05005KT 08/M12 A3035 RMK A01 T00831123  RH  022%=      5-min Rain = 0
KWVS 012300Z 07005KT 08/M12 A3035 RMK A01 T00831124  RH  022%=      5-min Rain = 0
KWVS 012301Z 06006KT 08/M12 A3035 RMK A01 T00831124  RH  022%=      5-min Rain = 0
KWVS 012302Z 06005KT 08/M13 A3035 RMK A01 T00821126  RH  021%=      5-min Rain = 0
KWVS 012303Z 07005KT 08/M12 A3035 RMK A01 T00821122  RH  022%=      5-min Rain = 0
KWVS 012304Z 06007KT 08/M12 A3035 RMK A01 T00821122  RH  022%=      5-min Rain = 0
KWVS 012305Z 06007KT 08/M13 A3035 RMK A01 T00831127  RH  021%=      5-min Rain = 0
KWVS 012306Z 06007KT 08/M13 A3035 RMK A01 T00821126  RH  021%=      5-min Rain = 0
KWVS 012307Z 06008KT 08/M13 A3035 RMK A01 T00821131  RH  021%=      5-min Rain = 0
KWVS 012308Z 06007KT 08/M14 A3035 RMK A01 T00811136  RH  020%=      5-min Rain = 0
KWVS 012309Z 06006KT 08/M13 A3035 RMK A01 T00801133  RH  020%=      5-min Rain = 0
KWVS 012310Z 06006KT 08/M13 A3035 RMK A01 T00811131  RH  021%=      5-min Rain = 0
KWVS 012311Z 06006KT 08/M13 A3035 RMK A01 T00811127  RH  021%=      5-min Rain = 0
KWVS 012312Z 07007KT 08/M13 A3035 RMK A01 T00821128  RH  021%=      5-min Rain = 0
KWVS 012313Z 07005KT 08/M13 A3035 RMK A01 T00821131  RH  021%=      5-min Rain = 0
KWVS 012314Z 07006KT 08/M13 A3035 RMK A01 T00821129  RH  021%=      5-min Rain = 0
KWVS 012315Z 07008KT 08/M13 A3035 RMK A01 T00821131  RH  021%=      5-min Rain = 0
KWVS 012316Z 08006KT 08/M13 A3035 RMK A01 T00811133  RH  020%=      5-min Rain = 0
KWVS 012317Z 08007KT 08/M13 A3035 RMK A01 T00811133  RH  020%=      5-min Rain = 0
KWVS 012318Z 06006KT 08/M14 A3035 RMK A01 T00811136  RH  020%=      5-min Rain = 0
KWVS 012319Z 06006KT 08/M14 A3035 RMK A01 T00811135  RH  020%=      5-min Rain = 0
KWVS 012320Z 07005KT 08/M13 A3035 RMK A01 T00811132  RH  021%=      5-min Rain = 0
KWVS 012321Z 06007KT 08/M13 A3035 RMK A01 T00821129  RH  021%=      5-min Rain = 0
KWVS 012322Z 05007KT 08/M13 A3035 RMK A01 T00831134  RH  020%=      5-min Rain = 0
KWVS 012323Z 06007KT 08/M14 A3035 RMK A01 T00831138  RH  019%=      5-min Rain = 0
KWVS 012324Z 06005KT 08/M14 A3035 RMK A01 T00821142  RH  019%=      5-min Rain = 0
KWVS 012325Z 06006KT 08/M14 A3035 RMK A01 T00811138  RH  019%=      5-min Rain = 0
KWVS 012326Z 06004KT 08/M13 A3035 RMK A01 T00811134  RH  020%=      5-min Rain = 0
KWVS 012327Z 07006KT 08/M13 A3035 RMK A01 T00821132  RH  020%=      5-min Rain = 0
KWVS 012328Z 07006KT 08/M14 A3035 RMK A01 T00821135  RH  020%=      5-min Rain = 0
KWVS 012329Z 06005KT 08/M14 A3035 RMK A01 T00821139  RH  019%=      5-min Rain = 0
KWVS 012330Z 07004KT 08/M14 A3035 RMK A01 T00821139  RH  019%=      5-min Rain = 0
KWVS 012331Z 09003KT 08/M14 A3035 RMK A01 T00811138  RH  020%=      5-min Rain = 0
KWVS 012332Z 08005KT 08/M13 A3035 RMK A01 T00821132  RH  020%=      5-min Rain = 0
KWVS 012333Z 08005KT 08/M14 A3035 RMK A01 T00831135  RH  020%=      5-min Rain = 0
KWVS 012334Z 07005KT 08/M13 A3035 RMK A01 T00831132  RH  020%=      5-min Rain = 0
KWVS 012335Z 07005KT 08/M13 A3035 RMK A01 T00841131  RH  020%=      5-min Rain = 0
KWVS 012336Z 07006KT 08/M13 A3035 RMK A01 T00841130  RH  020%=      5-min Rain = 0
KWVS 012337Z 07007KT 08/M13 A3035 RMK A01 T00841131  RH  020%=      5-min Rain = 0
KWVS 012338Z 07007KT 08/M13 A3035 RMK A01 T00831133  RH  020%=      5-min Rain = 0
KWVS 012339Z 07008KT 08/M13 A3035 RMK A01 T00831132  RH  020%=      5-min Rain = 0
KWVS 012340Z 06007KT 08/M13 A3035 RMK A01 T00831133  RH  020%=      5-min Rain = 0
KWVS 012341Z 06005G10KT 08/M13 A3035 RMK A01 T00831134  RH  020%=      5-min Rain = 0
KWVS 012342Z 06006KT 08/M13 A3035 RMK A01 T00831132  RH  020%=      5-min Rain = 0
KWVS 012343Z 05006KT 08/M13 A3035 RMK A01 T00831131  RH  020%=      5-min Rain = 0
KWVS 012344Z 07008KT 08/M13 A3035 RMK A01 T00831130  RH  021%=      5-min Rain = 0
KWVS 012345Z 06007KT 08/M14 A3035 RMK A01 T00831136  RH  020%=      5-min Rain = 0
KWVS 012346Z 06007KT 08/M13 A3035 RMK A01 T00821134  RH  020%=      5-min Rain = 0
KWVS 012347Z 06007KT 08/M13 A3035 RMK A01 T00811132  RH  020%=      5-min Rain = 0
KWVS 012348Z 06008KT 08/M13 A3035 RMK A01 T00811132  RH  021%=      5-min Rain = 0
KWVS 012349Z 06007KT 08/M13 A3035 RMK A01 T00801133  RH  020%=      5-min Rain = 0
KWVS 012350Z 06005KT 08/M13 A3035 RMK A01 T00801133  RH  021%=      5-min Rain = 0
KWVS 012351Z 07007KT 08/M13 A3035 RMK A01 T00791132  RH  021%=      5-min Rain = 0
KWVS 012352Z 08005KT 08/M13 A3035 RMK A01 T00791129  RH  021%=      5-min Rain = 0
KWVS 012353Z 09006KT 08/M13 A3035 RMK A01 T00791130  RH  021%=      5-min Rain = 0
KWVS 012354Z 07007KT 08/M13 A3035 RMK A01 T00791131  RH  021%=      5-min Rain = 0
KWVS 012355Z 07007KT 08/M13 A3035 RMK A01 T00791131  RH  021%=      5-min Rain = 0
KWVS 012356Z 06006KT 08/M13 A3035 RMK A01 T00791130  RH  021%=      5-min Rain = 0
KWVS 012357Z 06005KT 08/M13 A3035 RMK A01 T00791131  RH  021%=      5-min Rain = 0
KWVS 012358Z 07007KT 08/M13 A3035 RMK A01 T00791125  RH  022%=      5-min Rain = 0
KWVS 012359Z 07007KT 08/M13 A3035 RMK A01 T00791127  RH  022%=      5-min Rain = 0
KWVS 020000Z 08007KT 08/M13 A3035 RMK A01 T00791128  RH  022%=      5-min Rain = 0
KWVS 020001Z 08007KT 08/M13 A3035 RMK A01 T00781126  RH  022%=      5-min Rain = 0
KWVS 020002Z 07008KT 08/M13 A3035 RMK A01 T00781127  RH  022%=      5-min Rain = 0
KWVS 020003Z 07007KT 08/M13 A3035 RMK A01 T00781127  RH  022%=      5-min Rain = 0
KWVS 020004Z 08008KT 08/M13 A3035 RMK A01 T00781126  RH  022%=      5-min Rain = 0
KWVS 020005Z 07008KT 08/M13 A3035 RMK A01 T00771127  RH  022%=      5-min Rain = 0
KWVS 020006Z 07007KT 08/M13 A3035 RMK A01 T00761129  RH  022%=      5-min Rain = 0
KWVS 020007Z 07006KT 08/M13 A3035 RMK A01 T00761129  RH  022%=      5-min Rain = 0
KWVS 020008Z 07007KT 08/M13 A3035 RMK A01 T00761127  RH  022%=      5-min Rain = 0
KWVS 020009Z 07006KT 08/M13 A3035 RMK A01 T00761129  RH  022%=      5-min Rain = 0
KWVS 020010Z 07005KT 08/M13 A3035 RMK A01 T00761128  RH  022%=      5-min Rain = 0
KWVS 020011Z 07005KT 08/M13 A3035 RMK A01 T00761126  RH  022%=      5-min Rain = 0
KWVS 020012Z 09005KT 08/M13 A3035 RMK A01 T00761128  RH  022%=      5-min Rain = 0
KWVS 020013Z 07004KT 08/M13 A3035 RMK A01 T00761127  RH  022%=      5-min Rain = 0
KWVS 020014Z 06005KT 08/M13 A3035 RMK A01 T00751125  RH  023%=      5-min Rain = 0
KWVS 020015Z 06004KT 08/M12 A3035 RMK A01 T00751124  RH  023%=      5-min Rain = 0
KWVS 020016Z 06004KT 08/M12 A3035 RMK A01 T00751123  RH  023%=      5-min Rain = 0
KWVS 020017Z 06004KT 08/M12 A3035 RMK A01 T00751122  RH  023%=      5-min Rain = 0
KWVS 020018Z 06005KT 08/M13 A3035 RMK A01 T00751125  RH  023%=      5-min Rain = 0
KWVS 020019Z 07006KT 08/M13 A3035 RMK A01 T00751127  RH  022%=      5-min Rain = 0
KWVS 020020Z 07005KT 08/M13 A3035 RMK A01 T00751128  RH  022%=      5-min Rain = 0
KWVS 020021Z 07005KT 07/M13 A3035 RMK A01 T00741129  RH  022%=      5-min Rain = 0
KWVS 020022Z 07005KT 07/M13 A3035 RMK A01 T00741132  RH  022%=      5-min Rain = 0
KWVS 020023Z 07005KT 07/M14 A3035 RMK A01 T00741135  RH  021%=      5-min Rain = 0
KWVS 020024Z 07004KT 07/M13 A3035 RMK A01 T00741133  RH  021%=      5-min Rain = 0
KWVS 020025Z 07005KT 07/M13 A3035 RMK A01 T00741131  RH  022%=      5-min Rain = 0
KWVS 020026Z 06005KT 07/M13 A3035 RMK A01 T00731132  RH  022%=      5-min Rain = 0
KWVS 020027Z 06004KT 07/M13 A3035 RMK A01 T00731131  RH  022%=      5-min Rain = 0
KWVS 020028Z 06004KT 07/M13 A3035 RMK A01 T00731130  RH  022%=      5-min Rain = 0
KWVS 020029Z 06004KT 07/M13 A3035 RMK A01 T00731129  RH  022%=      5-min Rain = 0
KWVS 020030Z 06005KT 07/M13 A3035 RMK A01 T00731131  RH  022%=      5-min Rain = 0
KWVS 020031Z 07003KT 07/M13 A3035 RMK A01 T00731129  RH  022%=      5-min Rain = 0
KWVS 020032Z 07003KT 07/M13 A3035 RMK A01 T00731125  RH  023%=      5-min Rain = 0
KWVS 020033Z 07004KT 07/M12 A3035 RMK A01 T00731124  RH  023%=      5-min Rain = 0
KWVS 020034Z 08004KT 07/M12 A3035 RMK A01 T00721123  RH  023%=      5-min Rain = 0
KWVS 020035Z 07004KT 07/M12 A3035 RMK A01 T00711122  RH  024%=      5-min Rain = 0
KWVS 020036Z 07004KT 07/M12 A3035 RMK A01 T00711122  RH  024%=      5-min Rain = 0
KWVS 020037Z 07004KT 07/M12 A3035 RMK A01 T00711122  RH  024%=      5-min Rain = 0
KWVS 020038Z 07004KT 07/M12 A3035 RMK A01 T00701121  RH  024%=      5-min Rain = 0
KWVS 020039Z 07004KT 07/M12 A3035 RMK A01 T00701122  RH  024%=      5-min Rain = 0
KWVS 020040Z 07004KT 07/M12 A3035 RMK A01 T00701120  RH  024%=      5-min Rain = 0
KWVS 020041Z 07003KT 07/M12 A3035 RMK A01 T00691121  RH  024%=      5-min Rain = 0
KWVS 020042Z 07003KT 07/M12 A3035 RMK A01 T00691120  RH  025%=      5-min Rain = 0
KWVS 020043Z 07003KT 07/M12 A3035 RMK A01 T00681118  RH  025%=      5-min Rain = 0
KWVS 020044Z 07003KT 07/M12 A3035 RMK A01 T00681119  RH  025%=      5-min Rain = 0
KWVS 020045Z 07003KT 07/M12 A3035 RMK A01 T00671119  RH  025%=      5-min Rain = 0
KWVS 020046Z 07003KT 07/M12 A3035 RMK A01 T00671119  RH  025%=      5-min Rain = 0
KWVS 020047Z 07003KT 07/M12 A3035 RMK A01 T00661120  RH  025%=      5-min Rain = 0
KWVS 020048Z 07003KT 07/M12 A3035 RMK A01 T00661121  RH  025%=      5-min Rain = 0
KWVS 020049Z 07003KT 07/M12 A3035 RMK A01 T00661122  RH  025%=      5-min Rain = 0
KWVS 020050Z 07003KT 07/M12 A3035 RMK A01 T00661123  RH  025%=      5-min Rain = 0
KWVS 020051Z 08003KT 07/M12 A3035 RMK A01 T00661123  RH  025%=      5-min Rain = 0
KWVS 020052Z 07003KT 07/M12 A3035 RMK A01 T00661122  RH  025%=      5-min Rain = 0
KWVS 020053Z 07002KT 07/M12 A3035 RMK A01 T00661122  RH  025%=      5-min Rain = 0
KWVS 020054Z 07002KT 07/M12 A3035 RMK A01 T00661122  RH  025%=      5-min Rain = 0
KWVS 020055Z 07002KT 07/M12 A3035 RMK A01 T00661123  RH  025%=      5-min Rain = 0
KWVS 020056Z 07002KT 07/M12 A3035 RMK A01 T00661123  RH  024%=      5-min Rain = 0
KWVS 020057Z 07003KT 07/M12 A3035 RMK A01 T00651124  RH  024%=      5-min Rain = 0
KWVS 020058Z 07003KT 07/M13 A3035 RMK A01 T00651125  RH  024%=      5-min Rain = 0
KWVS 020059Z 07002KT 07/M12 A3035 RMK A01 T00651124  RH  024%=      5-min Rain = 0
KWVS 020100Z 07002KT 07/M12 A3035 RMK A01 T00651124  RH  024%=      5-min Rain = 0
KWVS 020101Z 08002KT 07/M12 A3035 RMK A01 T00651124  RH  024%=      5-min Rain = 0
KWVS 020102Z 08002KT 07/M12 A3035 RMK A01 T00651124  RH  024%=      5-min Rain = 0
KWVS 020103Z 07002KT 07/M12 A3035 RMK A01 T00651124  RH  024%=      5-min Rain = 0
KWVS 020104Z 07002KT 07/M12 A3035 RMK A01 T00651124  RH  024%=      5-min Rain = 0
KWVS 020105Z 08002KT 07/M12 A3035 RMK A01 T00651124  RH  024%=      5-min Rain = 0
KWVS 020106Z 07002KT 06/M13 A3035 RMK A01 T00641125  RH  024%=      5-min Rain = 0
KWVS 020107Z 08002KT 06/M13 A3035 RMK A01 T00641125  RH  024%=      5-min Rain = 0
KWVS 020108Z 08002KT 06/M12 A3035 RMK A01 T00641124  RH  025%=      5-min Rain = 0
KWVS 020109Z 08002KT 06/M12 A3035 RMK A01 T00641124  RH  025%=      5-min Rain = 0
KWVS 020110Z 09002KT 06/M12 A3035 RMK A01 T00641124  RH  025%=      5-min Rain = 0
KWVS 020111Z 09002KT 06/M12 A3035 RMK A01 T00641124  RH  025%=      5-min Rain = 0
KWVS 020112Z 09002KT 06/M13 A3035 RMK A01 T00631125  RH  025%=      5-min Rain = 0
KWVS 020113Z 10002KT 06/M13 A3035 RMK A01 T00631125  RH  025%=      5-min Rain = 0
KWVS 020114Z 10002KT 06/M13 A3035 RMK A01 T00631125  RH  025%=      5-min Rain = 0
KWVS 020115Z 11002KT 06/M13 A3035 RMK A01 T00631125  RH  025%=      5-min Rain = 0
KWVS 020116Z 11001KT 06/M13 A3035 RMK A01 T00621125  RH  025%=      5-min Rain = 0
KWVS 020117Z 11001KT 06/M13 A3035 RMK A01 T00631125  RH  025%=      5-min Rain = 0
KWVS 020118Z 11001KT 06/M13 A3035 RMK A01 T00621126  RH  025%=      5-min Rain = 0
KWVS 020119Z 11001KT 06/M13 A3035 RMK A01 T00621126  RH  025%=      5-min Rain = 0
KWVS 020120Z 11001KT 06/M13 A3035 RMK A01 T00631126  RH  025%=      5-min Rain = 0
KWVS 020121Z 11001KT 06/M13 A3035 RMK A01 T00621126  RH  024%=      5-min Rain = 0
KWVS 020122Z 11000KT 06/M13 A3035 RMK A01 T00621126  RH  025%=      5-min Rain = 0
KWVS 020123Z 11001KT 06/M13 A3035 RMK A01 T00621127  RH  024%=      5-min Rain = 0
KWVS 020124Z 11000KT 06/M13 A3035 RMK A01 T00621127  RH  024%=      5-min Rain = 0
KWVS 020125Z 00000KT 06/M13 A3035 RMK A01 T00621128  RH  024%=      5-min Rain = 0
KWVS 020126Z 00000KT 06/M13 A3035 RMK A01 T00621128  RH  024%=      5-min Rain = 0
KWVS 020127Z 00000KT 06/M13 A3035 RMK A01 T00621128  RH  024%=      5-min Rain = 0
KWVS 020128Z 00000KT 06/M13 A3035 RMK A01 T00621128  RH  024%=      5-min Rain = 0
KWVS 020129Z 00000KT 06/M13 A3035 RMK A01 T00631128  RH  024%=      5-min Rain = 0
KWVS 020130Z 00000KT 06/M13 A3035 RMK A01 T00621128  RH  024%=      5-min Rain = 0
KWVS 020131Z 00000KT 06/M13 A3035 RMK A01 T00621128  RH  024%=      5-min Rain = 0
KWVS 020132Z 00000KT 06/M13 A3035 RMK A01 T00621129  RH  024%=      5-min Rain = 0
KWVS 020133Z 00000KT 06/M13 A3035 RMK A01 T00611129  RH  024%=      5-min Rain = 0
KWVS 020134Z 00000KT 06/M13 A3035 RMK A01 T00611129  RH  024%=      5-min Rain = 0
KWVS 020135Z 00000KT 06/M13 A3035 RMK A01 T00601130  RH  024%=      5-min Rain = 0
KWVS 020136Z 00000KT 06/M13 A3035 RMK A01 T00601130  RH  024%=      5-min Rain = 0
KWVS 020137Z 00000KT 06/M13 A3035 RMK A01 T00591130  RH  024%=      5-min Rain = 0
KWVS 020138Z 00000KT 06/M13 A3035 RMK A01 T00591129  RH  024%=      5-min Rain = 0
KWVS 020139Z 00000KT 06/M13 A3035 RMK A01 T00591129  RH  024%=      5-min Rain = 0
KWVS 020140Z 00000KT 06/M13 A3035 RMK A01 T00591129  RH  024%=      5-min Rain = 0
KWVS 020141Z 00000KT 06/M13 A3035 RMK A01 T00591129  RH  024%=      5-min Rain = 0
KWVS 020142Z 00000KT 06/M13 A3035 RMK A01 T00601129  RH  024%=      5-min Rain = 0
KWVS 020143Z 00000KT 06/M13 A3035 RMK A01 T00611129  RH  024%=      5-min Rain = 0
KWVS 020144Z 00000KT 06/M13 A3035 RMK A01 T00611129  RH  024%=      5-min Rain = 0
KWVS 020145Z 00000KT 06/M13 A3035 RMK A01 T00621129  RH  024%=      5-min Rain = 0
KWVS 020146Z 00000KT 06/M13 A3035 RMK A01 T00621128  RH  024%=      5-min Rain = 0
KWVS 020147Z 00000KT 06/M13 A3035 RMK A01 T00631129  RH  024%=      5-min Rain = 0
KWVS 020148Z 00000KT 06/M13 A3035 RMK A01 T00631128  RH  024%=      5-min Rain = 0
KWVS 020149Z 00000KT 06/M13 A3035 RMK A01 T00631128  RH  024%=      5-min Rain = 0
KWVS 020150Z 00000KT 06/M13 A3035 RMK A01 T00631128  RH  024%=      5-min Rain = 0
KWVS 020151Z 00000KT 06/M13 A3035 RMK A01 T00631128  RH  024%=      5-min Rain = 0
KWVS 020152Z 00000KT 06/M13 A3035 RMK A01 T00631128  RH  024%=      5-min Rain = 0
KWVS 020153Z 00000KT 06/M13 A3035 RMK A01 T00631128  RH  024%=      5-min Rain = 0
KWVS 020154Z 00000KT 06/M13 A3035 RMK A01 T00631128  RH  024%=      5-min Rain = 0
KWVS 020155Z 00000KT 06/M13 A3035 RMK A01 T00631128  RH  024%=      5-min Rain = 0
KWVS 020156Z 00000KT 06/M13 A3035 RMK A01 T00631128  RH  024%=      5-min Rain = 0
KWVS 020157Z 00000KT 06/M13 A3035 RMK A01 T00631128  RH  024%=      5-min Rain = 0
KWVS 020158Z 00000KT 06/M13 A3035 RMK A01 T00631128  RH  024%=      5-min Rain = 0
KWVS 020159Z 00000KT 06/M13 A3035 RMK A01 T00621128  RH  024%=      5-min Rain = 0
KWVS 020200Z 00000KT 06/M13 A3035 RMK A01 T00621128  RH  024%=      5-min Rain = 0
KWVS 020201Z 00000KT 06/M13 A3035 RMK A01 T00621128  RH  024%=      5-min Rain = 0
KWVS 020202Z 00000KT 06/M13 A3035 RMK A01 T00611128  RH  024%=      5-min Rain = 0
KWVS 020203Z 00000KT 06/M13 A3035 RMK A01 T00611129  RH  024%=      5-min Rain = 0
KWVS 020204Z 00000KT 06/M13 A3035 RMK A01 T00601129  RH  024%=      5-min Rain = 0
KWVS 020205Z 00000KT 06/M13 A3035 RMK A01 T00591129  RH  024%=      5-min Rain = 0
KWVS 020206Z 00000KT 06/M13 A3035 RMK A01 T00581129  RH  025%=      5-min Rain = 0
KWVS 020207Z 00000KT 06/M13 A3035 RMK A01 T00581129  RH  025%=      5-min Rain = 0
KWVS 020208Z 00000KT 06/M13 A3035 RMK A01 T00581128  RH  025%=      5-min Rain = 0
KWVS 020209Z 00000KT 06/M13 A3035 RMK A01 T00581128  RH  025%=      5-min Rain = 0
KWVS 020210Z 00000KT 06/M13 A3035 RMK A01 T00581129  RH  025%=      5-min Rain = 0
KWVS 020211Z 25000KT 06/M13 A3035 RMK A01 T00581129  RH  025%=      5-min Rain = 0
KWVS 020212Z 25000KT 06/M13 A3035 RMK A01 T00571127  RH  025%=      5-min Rain = 0
KWVS 020213Z 00000KT 06/M13 A3035 RMK A01 T00551127  RH  026%=      5-min Rain = 0
KWVS 020214Z 00000KT 06/M13 A3035 RMK A01 T00551127  RH  026%=      5-min Rain = 0
KWVS 020215Z 00000KT 05/M13 A3035 RMK A01 T00541127  RH  026%=      5-min Rain = 0
KWVS 020216Z 00000KT 05/M13 A3035 RMK A01 T00541126  RH  026%=      5-min Rain = 0
KWVS 020217Z 25000KT 05/M13 A3035 RMK A01 T00531125  RH  026%=      5-min Rain = 0
KWVS 020218Z 25001KT 05/M13 A3035 RMK A01 T00531125  RH  026%=      5-min Rain = 0
KWVS 020219Z 25001KT 05/M13 A3035 RMK A01 T00521125  RH  027%=      5-min Rain = 0
KWVS 020220Z 25001KT 05/M12 A3035 RMK A01 T00521124  RH  027%=      5-min Rain = 0
KWVS 020221Z 25001KT 05/M12 A3035 RMK A01 T00511124  RH  027%=      5-min Rain = 0
KWVS 020222Z 25002KT 05/M12 A3035 RMK A01 T00501123  RH  027%=      5-min Rain = 0
KWVS 020223Z 25002KT 05/M12 A3035 RMK A01 T00491123  RH  028%=      5-min Rain = 0
KWVS 020224Z 25002KT 05/M12 A3035 RMK A01 T00481123  RH  028%=      5-min Rain = 0
KWVS 020225Z 25002KT 05/M12 A3035 RMK A01 T00481122  RH  028%=      5-min Rain = 0
KWVS 020226Z 25002KT 05/M12 A3035 RMK A01 T00481123  RH  028%=      5-min Rain = 0
KWVS 020227Z 25002KT 05/M12 A3035 RMK A01 T00471123  RH  028%=      5-min Rain = 0
KWVS 020228Z 25002KT 05/M12 A3035 RMK A01 T00471123  RH  028%=      5-min Rain = 0
KWVS 020229Z 25002KT 05/M12 A3035 RMK A01 T00471123  RH  028%=      5-min Rain = 0
KWVS 020230Z 25002KT 05/M12 A3035 RMK A01 T00471123  RH  028%=      5-min Rain = 0
KWVS 020231Z 25002KT 05/M12 A3035 RMK A01 T00471124  RH  028%=      5-min Rain = 0
KWVS 020232Z 25002KT 05/M12 A3035 RMK A01 T00461123  RH  028%=      5-min Rain = 0
KWVS 020233Z 26002KT 05/M12 A3035 RMK A01 T00461123  RH  028%=      5-min Rain = 0
KWVS 020234Z 26002KT 05/M12 A3035 RMK A01 T00461123  RH  028%=      5-min Rain = 0
KWVS 020235Z 26002KT 05/M12 A3035 RMK A01 T00451122  RH  028%=      5-min Rain = 0
KWVS 020236Z 26002KT 04/M12 A3035 RMK A01 T00441122  RH  029%=      5-min Rain = 0
KWVS 020237Z 26003KT 04/M12 A3035 RMK A01 T00431122  RH  029%=      5-min Rain = 0
KWVS 020238Z 26003KT 04/M12 A3035 RMK A01 T00421121  RH  029%=      5-min Rain = 0
KWVS 020239Z 26003KT 04/M12 A3036 RMK A01 T00411121  RH  030%=      5-min Rain = 0
KWVS 020240Z 26003KT 04/M12 A3036 RMK A01 T00401122  RH  030%=      5-min Rain = 0
KWVS 020241Z 26003KT 04/M12 A3035 RMK A01 T00401121  RH  030%=      5-min Rain = 0
KWVS 020242Z 26003KT 04/M12 A3035 RMK A01 T00401121  RH  030%=      5-min Rain = 0
KWVS 020243Z 26003KT 04/M12 A3035 RMK A01 T00391121  RH  030%=      5-min Rain = 0
KWVS 020244Z 26003KT 04/M12 A3035 RMK A01 T00391121  RH  030%=      5-min Rain = 0
KWVS 020245Z 26004KT 04/M12 A3036 RMK A01 T00391122  RH  030%=      5-min Rain = 0
KWVS 020246Z 26004KT 04/M12 A3036 RMK A01 T00391122  RH  030%=      5-min Rain = 0
KWVS 020247Z 26004KT 04/M12 A3036 RMK A01 T00391121  RH  030%=      5-min Rain = 0
KWVS 020248Z 26004KT 04/M12 A3036 RMK A01 T00391121  RH  030%=      5-min Rain = 0
KWVS 020249Z 26004KT 04/M12 A3036 RMK A01 T00381121  RH  030%=      5-min Rain = 0
KWVS 020250Z 26004KT 04/M12 A3036 RMK A01 T00381121  RH  030%=      5-min Rain = 0
KWVS 020251Z 26004KT 04/M12 A3036 RMK A01 T00371120  RH  031%=      5-min Rain = 0
KWVS 020252Z 26004KT 04/M12 A3036 RMK A01 T00361120  RH  031%=      5-min Rain = 0
KWVS 020253Z 27004KT 04/M12 A3036 RMK A01 T00361120  RH  031%=      5-min Rain = 0
KWVS 020254Z 27004KT 04/M12 A3036 RMK A01 T00351120  RH  031%=      5-min Rain = 0
KWVS 020255Z 27004KT 04/M12 A3036 RMK A01 T00351121  RH  031%=      5-min Rain = 0
KWVS 020256Z 27004KT 04/M12 A3036 RMK A01 T00361122  RH  031%=      5-min Rain = 0
KWVS 020257Z 27004KT 04/M12 A3036 RMK A01 T00361121  RH  031%=      5-min Rain = 0
KWVS 020258Z 27004KT 04/M12 A3036 RMK A01 T00361121  RH  031%=      5-min Rain = 0
KWVS 020259Z 27004KT 04/M12 A3036 RMK A01 T00361121  RH  031%=      5-min Rain = 0
KWVS 020300Z 27003KT 04/M12 A3036 RMK A01 T00361121  RH  031%=      5-min Rain = 0
KWVS 020301Z 27003KT 04/M12 A3036 RMK A01 T00361121  RH  031%=      5-min Rain = 0
KWVS 020302Z 27003KT 04/M12 A3036 RMK A01 T00361121  RH  031%=      5-min Rain = 0
KWVS 020303Z 27003KT 04/M12 A3036 RMK A01 T00361121  RH  031%=      5-min Rain = 0
KWVS 020304Z 27003KT 04/M12 A3036 RMK A01 T00361121  RH  031%=      5-min Rain = 0
KWVS 020305Z 27003KT 04/M12 A3036 RMK A01 T00361122  RH  031%=      5-min Rain = 0
KWVS 020306Z 27003KT 04/M12 A3036 RMK A01 T00361122  RH  031%=      5-min Rain = 0
KWVS 020307Z 27003KT 04/M12 A3036 RMK A01 T00361122  RH  030%=      5-min Rain = 0
KWVS 020308Z 27003KT 04/M12 A3036 RMK A01 T00361122  RH  030%=      5-min Rain = 0
KWVS 020309Z 27003KT 04/M12 A3036 RMK A01 T00361122  RH  031%=      5-min Rain = 0
KWVS 020310Z 27003KT 04/M12 A3036 RMK A01 T00361122  RH  031%=      5-min Rain = 0
KWVS 020311Z 28003KT 04/M12 A3036 RMK A01 T00361122  RH  030%=      5-min Rain = 0
KWVS 020312Z 27003KT 04/M12 A3036 RMK A01 T00361122  RH  030%=      5-min Rain = 0
KWVS 020313Z 27003KT 04/M12 A3036 RMK A01 T00351122  RH  031%=      5-min Rain = 0
KWVS 020314Z 27004KT 03/M12 A3036 RMK A01 T00341121  RH  031%=      5-min Rain = 0
KWVS 020315Z 27003KT 03/M12 A3036 RMK A01 T00331121  RH  031%=      5-min Rain = 0
KWVS 020316Z 28003KT 03/M12 A3036 RMK A01 T00331121  RH  031%=      5-min Rain = 0
KWVS 020317Z 28003KT 03/M12 A3036 RMK A01 T00321121  RH  032%=      5-min Rain = 0
KWVS 020318Z 28003KT 03/M12 A3036 RMK A01 T00321121  RH  032%=      5-min Rain = 0
KWVS 020319Z 28003KT 03/M12 A3036 RMK A01 T00321121  RH  032%=      5-min Rain = 0
KWVS 020320Z 28003KT 03/M12 A3036 RMK A01 T00321121  RH  032%=      5-min Rain = 0
KWVS 020321Z 28003KT 03/M12 A3036 RMK A01 T00311121  RH  032%=      5-min Rain = 0
KWVS 020322Z 28003KT 03/M12 A3036 RMK A01 T00311121  RH  032%=      5-min Rain = 0
KWVS 020323Z 28003KT 03/M12 A3036 RMK A01 T00311121  RH  032%=      5-min Rain = 0
KWVS 020324Z 28003KT 03/M12 A3036 RMK A01 T00311121  RH  032%=      5-min Rain = 0
KWVS 020325Z 28003KT 03/M12 A3036 RMK A01 T00311121  RH  032%=      5-min Rain = 0
KWVS 020326Z 28003KT 03/M12 A3036 RMK A01 T00311121  RH  032%=      5-min Rain = 0
KWVS 020327Z 29003KT 03/M12 A3036 RMK A01 T00311121  RH  032%=      5-min Rain = 0
KWVS 020328Z 29003KT 03/M12 A3036 RMK A01 T00311121  RH  032%=      5-min Rain = 0
KWVS 020329Z 29004KT 03/M12 A3036 RMK A01 T00301121  RH  032%=      5-min Rain = 0
KWVS 020330Z 28004KT 03/M12 A3036 RMK A01 T00301121  RH  032%=      5-min Rain = 0
KWVS 020331Z 28004KT 03/M12 A3035 RMK A01 T00301121  RH  032%=      5-min Rain = 0
KWVS 020332Z 28003KT 03/M12 A3035 RMK A01 T00301121  RH  032%=      5-min Rain = 0
KWVS 020333Z 28003KT 03/M12 A3035 RMK A01 T00311122  RH  032%=      5-min Rain = 0
KWVS 020334Z 28004KT 03/M12 A3035 RMK A01 T00321122  RH  031%=      5-min Rain = 0
KWVS 020335Z 28004KT 03/M12 A3035 RMK A01 T00321121  RH  032%=      5-min Rain = 0
KWVS 020336Z 28004KT 03/M12 A3035 RMK A01 T00321121  RH  031%=      5-min Rain = 0
KWVS 020337Z 28004KT 03/M12 A3035 RMK A01 T00321122  RH  031%=      5-min Rain = 0
KWVS 020338Z 28004KT 03/M12 A3035 RMK A01 T00331122  RH  031%=      5-min Rain = 0
KWVS 020339Z 28004KT 03/M12 A3035 RMK A01 T00331121  RH  031%=      5-min Rain = 0
KWVS 020340Z 28004KT 03/M12 A3035 RMK A01 T00321121  RH  031%=      5-min Rain = 0
KWVS 020341Z 28004KT 03/M12 A3035 RMK A01 T00321121  RH  031%=      5-min Rain = 0
KWVS 020342Z 27003KT 03/M12 A3035 RMK A01 T00321121  RH  031%=      5-min Rain = 0
KWVS 020343Z 27003KT 03/M12 A3035 RMK A01 T00321121  RH  032%=      5-min Rain = 0
KWVS 020344Z 28003KT 03/M12 A3035 RMK A01 T00321121  RH  032%=      5-min Rain = 0
KWVS 020345Z 28004KT 03/M12 A3035 RMK A01 T00321122  RH  031%=      5-min Rain = 0
KWVS 020346Z 28004KT 03/M12 A3035 RMK A01 T00311122  RH  031%=      5-min Rain = 0
KWVS 020347Z 28004KT 03/M12 A3035 RMK A01 T00321122  RH  031%=      5-min Rain = 0
KWVS 020348Z 28003KT 03/M12 A3035 RMK A01 T00321122  RH  031%=      5-min Rain = 0
KWVS 020349Z 28004KT 03/M12 A3035 RMK A01 T00321122  RH  031%=      5-min Rain = 0
KWVS 020350Z 28004KT 03/M12 A3035 RMK A01 T00321122  RH  031%=      5-min Rain = 0
KWVS 020351Z 28004KT 03/M12 A3035 RMK A01 T00321122  RH  031%=      5-min Rain = 0
KWVS 020352Z 28004KT 03/M12 A3035 RMK A01 T00321122  RH  031%=      5-min Rain = 0
KWVS 020353Z 28004KT 03/M12 A3035 RMK A01 T00321122  RH  031%=      5-min Rain = 0
KWVS 020354Z 28004KT 03/M12 A3035 RMK A01 T00321122  RH  031%=      5-min Rain = 0
KWVS 020355Z 28004KT 03/M12 A3035 RMK A01 T00321122  RH  031%=      5-min Rain = 0
KWVS 020356Z 28003KT 03/M12 A3035 RMK A01 T00321122  RH  031%=      5-min Rain = 0
KWVS 020357Z 28003KT 03/M12 A3035 RMK A01 T00321123  RH  031%=      5-min Rain = 0
KWVS 020358Z 28004KT 03/M12 A3035 RMK A01 T00311123  RH  031%=      5-min Rain = 0
KWVS 020359Z 28004KT 03/M12 A3035 RMK A01 T00311122  RH  031%=      5-min Rain = 0
KWVS 020400Z 27003KT 03/M12 A3035 RMK A01 T00311122  RH  032%=      5-min Rain = 0
KWVS 020401Z 27003KT 03/M12 A3035 RMK A01 T00301122  RH  032%=      5-min Rain = 0
KWVS 020402Z 27004KT 03/M12 A3035 RMK A01 T00291122  RH  032%=      5-min Rain = 0
KWVS 020403Z 27003KT 03/M12 A3035 RMK A01 T00301123  RH  032%=      5-min Rain = 0
KWVS 020404Z 28003KT 03/M12 A3035 RMK A01 T00301123  RH  032%=      5-min Rain = 0
KWVS 020405Z 27003KT 03/M12 A3035 RMK A01 T00301123  RH  031%=      5-min Rain = 0
KWVS 020406Z 27003KT 03/M12 A3035 RMK A01 T00311123  RH  031%=      5-min Rain = 0
KWVS 020407Z 27003KT 03/M12 A3035 RMK A01 T00311123  RH  031%=      5-min Rain = 0
KWVS 020408Z 28003KT 03/M12 A3035 RMK A01 T00311123  RH  031%=      5-min Rain = 0
KWVS 020409Z 27004KT 03/M12 A3035 RMK A01 T00311123  RH  031%=      5-min Rain = 0
KWVS 020410Z 28004KT 03/M12 A3035 RMK A01 T00301123  RH  032%=      5-min Rain = 0
KWVS 020411Z 28004KT 03/M12 A3035 RMK A01 T00291123  RH  032%=      5-min Rain = 0
KWVS 020412Z 28004KT 03/M12 A3035 RMK A01 T00291123  RH  032%=      5-min Rain = 0
KWVS 020413Z 28004KT 03/M12 A3035 RMK A01 T00291123  RH  032%=      5-min Rain = 0
KWVS 020414Z 28004KT 03/M12 A3035 RMK A01 T00301122  RH  032%=      5-min Rain = 0
KWVS 020415Z 28004KT 03/M12 A3035 RMK A01 T00301122  RH  032%=      5-min Rain = 0
KWVS 020416Z 28004KT 03/M12 A3035 RMK A01 T00291122  RH  032%=      5-min Rain = 0
KWVS 020417Z 28004KT 03/M12 A3035 RMK A01 T00281122  RH  032%=      5-min Rain = 0
KWVS 020418Z 28004KT 03/M12 A3035 RMK A01 T00281122  RH  032%=      5-min Rain = 0
KWVS 020419Z 28004KT 03/M12 A3035 RMK A01 T00271122  RH  032%=      5-min Rain = 0
KWVS 020420Z 28005KT 03/M12 A3035 RMK A01 T00271122  RH  032%=      5-min Rain = 0
KWVS 020421Z 28005KT 03/M12 A3035 RMK A01 T00271122  RH  033%=      5-min Rain = 0
KWVS 020422Z 28005KT 03/M12 A3035 RMK A01 T00261121  RH  033%=      5-min Rain = 0
KWVS 020423Z 28005KT 03/M12 A3035 RMK A01 T00251120  RH  034%=      5-min Rain = 0
KWVS 020424Z 28005KT 02/M12 A3035 RMK A01 T00241119  RH  034%=      5-min Rain = 0
KWVS 020425Z 28006KT 02/M12 A3035 RMK A01 T00231119  RH  034%=      5-min Rain = 0
KWVS 020426Z 28006KT 02/M12 A3035 RMK A01 T00231120  RH  034%=      5-min Rain = 0
KWVS 020427Z 28006KT 02/M12 A3035 RMK A01 T00241120  RH  034%=      5-min Rain = 0
KWVS 020428Z 28006KT 02/M12 A3035 RMK A01 T00241119  RH  034%=      5-min Rain = 0
KWVS 020429Z 28006KT 02/M12 A3035 RMK A01 T00231120  RH  034%=      5-min Rain = 0
KWVS 020430Z 28006KT 02/M12 A3035 RMK A01 T00241121  RH  033%=      5-min Rain = 0
KWVS 020431Z 28005KT 03/M12 A3035 RMK A01 T00251121  RH  033%=      5-min Rain = 0
KWVS 020432Z 28005KT 03/M12 A3035 RMK A01 T00261121  RH  033%=      5-min Rain = 0
KWVS 020433Z 28006KT 03/M12 A3035 RMK A01 T00251121  RH  033%=      5-min Rain = 0
KWVS 020434Z 28005KT 02/M12 A3035 RMK A01 T00241120  RH  034%=      5-min Rain = 0
KWVS 020435Z 28005KT 02/M12 A3035 RMK A01 T00241120  RH  034%=      5-min Rain = 0
KWVS 020436Z 29005KT 02/M12 A3035 RMK A01 T00231121  RH  034%=      5-min Rain = 0
KWVS 020437Z 28006KT 02/M12 A3035 RMK A01 T00231121  RH  034%=      5-min Rain = 0
KWVS 020438Z 29006KT 02/M12 A3035 RMK A01 T00231120  RH  034%=      5-min Rain = 0
KWVS 020439Z 28006KT 02/M12 A3035 RMK A01 T00231120  RH  034%=      5-min Rain = 0
KWVS 020440Z 29006KT 02/M12 A3035 RMK A01 T00231120  RH  034%=      5-min Rain = 0
KWVS 020441Z 28005KT 02/M12 A3035 RMK A01 T00231119  RH  034%=      5-min Rain = 0
KWVS 020442Z 28006KT 02/M12 A3035 RMK A01 T00231118  RH  034%=      5-min Rain = 0
KWVS 020443Z 28007KT 02/M12 A3035 RMK A01 T00231117  RH  035%=      5-min Rain = 0
KWVS 020444Z 28006KT 02/M12 A3035 RMK A01 T00221116  RH  035%=      5-min Rain = 0
KWVS 020445Z 28007KT 02/M12 A3035 RMK A01 T00231115  RH  035%=      5-min Rain = 0
KWVS 020446Z 28006KT 02/M12 A3035 RMK A01 T00241115  RH  035%=      5-min Rain = 0
KWVS 020447Z 29006KT 02/M11 A3035 RMK A01 T00241114  RH  035%=      5-min Rain = 0
KWVS 020448Z 29006KT 02/M11 A3035 RMK A01 T00241114  RH  035%=      5-min Rain = 0
KWVS 020449Z 29007KT 02/M11 A3035 RMK A01 T00241113  RH  036%=      5-min Rain = 0
KWVS 020450Z 29007KT 02/M11 A3035 RMK A01 T00241113  RH  036%=      5-min Rain = 0
KWVS 020451Z 29007KT 02/M11 A3035 RMK A01 T00231112  RH  036%=      5-min Rain = 0
KWVS 020452Z 29007KT 02/M11 A3035 RMK A01 T00231112  RH  036%=      5-min Rain = 0
KWVS 020453Z 29007KT 02/M11 A3035 RMK A01 T00221111  RH  037%=      5-min Rain = 0
KWVS 020454Z 29006KT 02/M11 A3035 RMK A01 T00221111  RH  037%=      5-min Rain = 0
KWVS 020455Z 29007KT 02/M11 A3035 RMK A01 T00221110  RH  037%=      5-min Rain = 0
KWVS 020456Z 29007KT 02/M11 A3035 RMK A01 T00221110  RH  037%=      5-min Rain = 0
KWVS 020457Z 28007KT 02/M11 A3035 RMK A01 T00231110  RH  037%=      5-min Rain = 0
KWVS 020458Z 28007KT 02/M11 A3035 RMK A01 T00231109  RH  037%=      5-min Rain = 0
KWVS 020459Z 28007KT 02/M11 A3035 RMK A01 T00221109  RH  037%=      5-min Rain = 0
KWVS 020500Z 28006KT 02/M11 A3035 RMK A01 T00221109  RH  037%=      5-min Rain = 0
KWVS 020501Z 28006KT 02/M11 A3035 RMK A01 T00221109  RH  037%=      5-min Rain = 0
KWVS 020502Z 28006KT 02/M11 A3035 RMK A01 T00221109  RH  037%=      5-min Rain = 0
KWVS 020503Z 28006KT 02/M11 A3035 RMK A01 T00221108  RH  038%=      5-min Rain = 0
KWVS 020504Z 28006KT 02/M11 A3034 RMK A01 T00221109  RH  038%=      5-min Rain = 0
KWVS 020505Z 28006KT 02/M11 A3034 RMK A01 T00221109  RH  037%=      5-min Rain = 0
KWVS 020506Z 28006KT 02/M11 A3034 RMK A01 T00221109  RH  037%=      5-min Rain = 0
KWVS 020507Z 28006KT 02/M11 A3034 RMK A01 T00221108  RH  038%=      5-min Rain = 0
KWVS 020508Z 28006KT 02/M11 A3034 RMK A01 T00221108  RH  038%=      5-min Rain = 0
KWVS 020509Z 28006KT 02/M11 A3034 RMK A01 T00211108  RH  038%=      5-min Rain = 0
KWVS 020510Z 28006KT 02/M11 A3034 RMK A01 T00211107  RH  038%=      5-min Rain = 0
KWVS 020511Z 28006KT 02/M11 A3035 RMK A01 T00211107  RH  038%=      5-min Rain = 0
KWVS 020512Z 28006KT 02/M11 A3035 RMK A01 T00211107  RH  038%=      5-min Rain = 0
KWVS 020513Z 28006KT 02/M11 A3035 RMK A01 T00211107  RH  038%=      5-min Rain = 0
KWVS 020514Z 28005KT 02/M11 A3035 RMK A01 T00221107  RH  038%=      5-min Rain = 0
KWVS 020515Z 29006KT 02/M11 A3035 RMK A01 T00211107  RH  038%=      5-min Rain = 0
KWVS 020516Z 29007KT 02/M11 A3035 RMK A01 T00221106  RH  038%=      5-min Rain = 0
KWVS 020517Z 28005KT 02/M11 A3035 RMK A01 T00221105  RH  039%=      5-min Rain = 0
KWVS 020518Z 28005KT 02/M11 A3035 RMK A01 T00211105  RH  039%=      5-min Rain = 0
KWVS 020519Z 29005KT 02/M10 A3035 RMK A01 T00211104  RH  039%=      5-min Rain = 0
KWVS 020520Z 28005KT 02/M10 A3035 RMK A01 T00201103  RH  039%=      5-min Rain = 0
KWVS 020521Z 28005KT 02/M10 A3035 RMK A01 T00201103  RH  040%=      5-min Rain = 0
KWVS 020522Z 29005KT 02/M10 A3035 RMK A01 T00201102  RH  040%=      5-min Rain = 0
KWVS 020523Z 28005KT 02/M10 A3035 RMK A01 T00201102  RH  040%=      5-min Rain = 0
KWVS 020524Z 29005KT 02/M10 A3035 RMK A01 T00201102  RH  040%=      5-min Rain = 0
KWVS 020525Z 29005KT 02/M10 A3035 RMK A01 T00191101  RH  040%=      5-min Rain = 0
KWVS 020526Z 29006KT 02/M10 A3035 RMK A01 T00181101  RH  041%=      5-min Rain = 0
KWVS 020527Z 28006KT 02/M10 A3035 RMK A01 T00181101  RH  041%=      5-min Rain = 0
KWVS 020528Z 28006KT 02/M10 A3035 RMK A01 T00171100  RH  041%=      5-min Rain = 0
KWVS 020529Z 28006KT 02/M10 A3035 RMK A01 T00161100  RH  042%=      5-min Rain = 0
KWVS 020530Z 28007KT 02/M10 A3035 RMK A01 T00161100  RH  042%=      5-min Rain = 0
KWVS 020531Z 28007KT 02/M10 A3035 RMK A01 T00161099  RH  042%=      5-min Rain = 0
KWVS 020532Z 28007KT 02/M10 A3035 RMK A01 T00151099  RH  042%=      5-min Rain = 0
KWVS 020533Z 28007KT 01/M10 A3035 RMK A01 T00141099  RH  043%=      5-min Rain = 0
KWVS 020534Z 28007KT 01/M10 A3034 RMK A01 T00141099  RH  043%=      5-min Rain = 0
KWVS 020535Z 28007KT 01/M10 A3034 RMK A01 T00141098  RH  043%=      5-min Rain = 0
KWVS 020536Z 28007KT 01/M10 A3034 RMK A01 T00141098  RH  043%=      5-min Rain = 0
KWVS 020537Z 28007KT 01/M10 A3034 RMK A01 T00141098  RH  043%=      5-min Rain = 0
KWVS 020538Z 28007KT 02/M10 A3034 RMK A01 T00151098  RH  043%=      5-min Rain = 0
KWVS 020539Z 28007KT 02/M10 A3034 RMK A01 T00151097  RH  043%=      5-min Rain = 0
KWVS 020540Z 28007KT 02/M10 A3034 RMK A01 T00151097  RH  043%=      5-min Rain = 0
KWVS 020541Z 28007KT 02/M10 A3034 RMK A01 T00151097  RH  043%=      5-min Rain = 0
KWVS 020542Z 28007KT 02/M10 A3034 RMK A01 T00161097  RH  043%=      5-min Rain = 0
KWVS 020543Z 28007KT 02/M10 A3034 RMK A01 T00171097  RH  043%=      5-min Rain = 0
KWVS 020544Z 28007KT 02/M10 A3034 RMK A01 T00171097  RH  043%=      5-min Rain = 0
KWVS 020545Z 28007KT 02/M10 A3034 RMK A01 T00171096  RH  043%=      5-min Rain = 0
KWVS 020546Z 28006KT 02/M10 A3034 RMK A01 T00171096  RH  043%=      5-min Rain = 0
KWVS 020547Z 28007KT 02/M10 A3034 RMK A01 T00171096  RH  043%=      5-min Rain = 0
KWVS 020548Z 28007KT 02/M10 A3034 RMK A01 T00171096  RH  043%=      5-min Rain = 0
KWVS 020549Z 28008KT 02/M10 A3034 RMK A01 T00161096  RH  043%=      5-min Rain = 0
KWVS 020550Z 28007KT 02/M10 A3034 RMK A01 T00171096  RH  043%=      5-min Rain = 0
KWVS 020551Z 28007KT 02/M10 A3034 RMK A01 T00171096  RH  043%=      5-min Rain = 0
KWVS 020552Z 28008KT 02/M10 A3034 RMK A01 T00171096  RH  043%=      5-min Rain = 0
KWVS 020553Z 28007KT 02/M10 A3034 RMK A01 T00171096  RH  043%=      5-min Rain = 0
KWVS 020554Z 28007KT 02/M10 A3034 RMK A01 T00171096  RH  043%=      5-min Rain = 0
KWVS 020555Z 28008KT 02/M10 A3034 RMK A01 T00171096  RH  043%=      5-min Rain = 0
KWVS 020556Z 28007KT 02/M10 A3034 RMK A01 T00171096  RH  043%=      5-min Rain = 0
KWVS 020557Z 28007KT 02/M10 A3034 RMK A01 T00171096  RH  043%=      5-min Rain = 0
KWVS 020558Z 28007KT 02/M10 A3034 RMK A01 T00161096  RH  043%=      5-min Rain = 0
KWVS 020559Z 28007KT 02/M10 A3034 RMK A01 T00161096  RH  043%=      5-min Rain = 0

Page generated in 0.0653 seconds.